<?xml version="1.0" encoding="UTF-8" standalone="no" ?>
<gpx xmlns="http://www.topografix.com/GPX/1/1" creator="MapSource 6.11.6" version="1.1" xmlns:xsi="http://www.w3.org/2001/XMLSchema-instance" xsi:schemaLocation="http://www.topografix.com/GPX/1/1 http://www.topografix.com/GPX/1/1/gpx.xsd">

  <metadata>
    <link href="http://www.garmin.com">
      <text>Garmin International</text>
    </link>
    <time>2009-08-18T20:00:15Z</time>
    <bounds maxlat="50.750244" maxlon="6.489681" minlat="50.689669" minlon="6.445723"/>
  </metadata>

  <trk>
    <name>Bundsandstein 1 original</name>
    <extensions>
      <gpxx:TrackExtension xmlns:gpxx="http://www.garmin.com/xmlschemas/GpxExtensions/v3" xmlns:xsi="http://www.w3.org/2001/XMLSchema-instance" xsi:schemaLocation="http://www.garmin.com/xmlschemas/GpxExtensions/v3 http://www.garmin.com/xmlschemas/GpxExtensions/v3/GpxExtensionsv3.xsd">
        <gpxx:DisplayColor>White</gpxx:DisplayColor>
      </gpxx:TrackExtension>
    </extensions>
    <trkseg>
      <trkpt lat="50.750244" lon="6.485675">
        <ele>429.850000</ele>
        <time>2009-08-18T07:29:09Z</time>
      </trkpt>
      <trkpt lat="50.750222" lon="6.485702">
        <ele>429.850000</ele>
        <time>2009-08-18T07:29:11Z</time>
      </trkpt>
      <trkpt lat="50.750172" lon="6.485588">
        <ele>428.890000</ele>
        <time>2009-08-18T07:29:24Z</time>
      </trkpt>
      <trkpt lat="50.749952" lon="6.485669">
        <ele>427.440000</ele>
        <time>2009-08-18T07:29:40Z</time>
      </trkpt>
      <trkpt lat="50.749745" lon="6.485624">
        <ele>424.560000</ele>
        <time>2009-08-18T07:29:59Z</time>
      </trkpt>
      <trkpt lat="50.749755" lon="6.485578">
        <ele>424.560000</ele>
        <time>2009-08-18T07:30:01Z</time>
      </trkpt>
      <trkpt lat="50.749671" lon="6.485252">
        <ele>422.160000</ele>
        <time>2009-08-18T07:30:15Z</time>
      </trkpt>
      <trkpt lat="50.749634" lon="6.484914">
        <ele>419.270000</ele>
        <time>2009-08-18T07:30:30Z</time>
      </trkpt>
      <trkpt lat="50.749633" lon="6.484886">
        <ele>419.270000</ele>
        <time>2009-08-18T07:30:31Z</time>
      </trkpt>
      <trkpt lat="50.749711" lon="6.484551">
        <ele>416.870000</ele>
        <time>2009-08-18T07:30:46Z</time>
      </trkpt>
      <trkpt lat="50.749894" lon="6.484351">
        <ele>414.950000</ele>
        <time>2009-08-18T07:31:03Z</time>
      </trkpt>
      <trkpt lat="50.749862" lon="6.484180">
        <ele>412.540000</ele>
        <time>2009-08-18T07:31:18Z</time>
      </trkpt>
      <trkpt lat="50.749840" lon="6.484140">
        <ele>412.060000</ele>
        <time>2009-08-18T07:31:21Z</time>
      </trkpt>
      <trkpt lat="50.749792" lon="6.483994">
        <ele>410.620000</ele>
        <time>2009-08-18T07:31:32Z</time>
      </trkpt>
      <trkpt lat="50.749690" lon="6.483977">
        <ele>409.660000</ele>
        <time>2009-08-18T07:31:38Z</time>
      </trkpt>
      <trkpt lat="50.749505" lon="6.484002">
        <ele>408.220000</ele>
        <time>2009-08-18T07:31:51Z</time>
      </trkpt>
      <trkpt lat="50.749424" lon="6.484013">
        <ele>407.260000</ele>
        <time>2009-08-18T07:31:56Z</time>
      </trkpt>
      <trkpt lat="50.749271" lon="6.483978">
        <ele>405.330000</ele>
        <time>2009-08-18T07:32:06Z</time>
      </trkpt>
      <trkpt lat="50.749225" lon="6.483989">
        <ele>404.370000</ele>
        <time>2009-08-18T07:32:10Z</time>
      </trkpt>
      <trkpt lat="50.749036" lon="6.483963">
        <ele>401.970000</ele>
        <time>2009-08-18T07:32:25Z</time>
      </trkpt>
      <trkpt lat="50.748982" lon="6.483959">
        <ele>401.970000</ele>
        <time>2009-08-18T07:32:29Z</time>
      </trkpt>
      <trkpt lat="50.748907" lon="6.483976">
        <ele>401.010000</ele>
        <time>2009-08-18T07:32:34Z</time>
      </trkpt>
      <trkpt lat="50.748837" lon="6.483977">
        <ele>400.530000</ele>
        <time>2009-08-18T07:32:40Z</time>
      </trkpt>
      <trkpt lat="50.748804" lon="6.483946">
        <ele>400.050000</ele>
        <time>2009-08-18T07:32:44Z</time>
      </trkpt>
      <trkpt lat="50.748612" lon="6.483842">
        <ele>398.120000</ele>
        <time>2009-08-18T07:32:57Z</time>
      </trkpt>
      <trkpt lat="50.748468" lon="6.483791">
        <ele>396.680000</ele>
        <time>2009-08-18T07:33:08Z</time>
      </trkpt>
      <trkpt lat="50.748349" lon="6.483574">
        <ele>394.280000</ele>
        <time>2009-08-18T07:33:24Z</time>
      </trkpt>
      <trkpt lat="50.748276" lon="6.483462">
        <ele>392.840000</ele>
        <time>2009-08-18T07:33:32Z</time>
      </trkpt>
      <trkpt lat="50.748182" lon="6.483356">
        <ele>390.910000</ele>
        <time>2009-08-18T07:33:46Z</time>
      </trkpt>
      <trkpt lat="50.748071" lon="6.483341">
        <ele>388.030000</ele>
        <time>2009-08-18T07:34:08Z</time>
      </trkpt>
      <trkpt lat="50.748023" lon="6.483273">
        <ele>384.660000</ele>
        <time>2009-08-18T07:34:33Z</time>
      </trkpt>
      <trkpt lat="50.747939" lon="6.483217">
        <ele>381.780000</ele>
        <time>2009-08-18T07:34:55Z</time>
      </trkpt>
      <trkpt lat="50.747757" lon="6.483085">
        <ele>378.900000</ele>
        <time>2009-08-18T07:35:13Z</time>
      </trkpt>
      <trkpt lat="50.747485" lon="6.482947">
        <ele>377.450000</ele>
        <time>2009-08-18T07:35:28Z</time>
      </trkpt>
      <trkpt lat="50.747310" lon="6.482916">
        <ele>376.010000</ele>
        <time>2009-08-18T07:35:39Z</time>
      </trkpt>
      <trkpt lat="50.747097" lon="6.482921">
        <ele>373.610000</ele>
        <time>2009-08-18T07:35:53Z</time>
      </trkpt>
      <trkpt lat="50.746971" lon="6.482915">
        <ele>372.650000</ele>
        <time>2009-08-18T07:36:01Z</time>
      </trkpt>
      <trkpt lat="50.746935" lon="6.482852">
        <ele>371.210000</ele>
        <time>2009-08-18T07:36:15Z</time>
      </trkpt>
      <trkpt lat="50.746907" lon="6.482710">
        <ele>367.840000</ele>
        <time>2009-08-18T07:36:39Z</time>
      </trkpt>
      <trkpt lat="50.746851" lon="6.482621">
        <ele>365.920000</ele>
        <time>2009-08-18T07:36:53Z</time>
      </trkpt>
      <trkpt lat="50.746821" lon="6.482532">
        <ele>363.040000</ele>
        <time>2009-08-18T07:37:15Z</time>
      </trkpt>
      <trkpt lat="50.746648" lon="6.482357">
        <ele>362.550000</ele>
        <time>2009-08-18T07:37:35Z</time>
      </trkpt>
      <trkpt lat="50.746462" lon="6.482307">
        <ele>361.590000</ele>
        <time>2009-08-18T07:37:47Z</time>
      </trkpt>
      <trkpt lat="50.746249" lon="6.482327">
        <ele>359.670000</ele>
        <time>2009-08-18T07:37:59Z</time>
      </trkpt>
      <trkpt lat="50.746147" lon="6.482280">
        <ele>359.190000</ele>
        <time>2009-08-18T07:38:06Z</time>
      </trkpt>
      <trkpt lat="50.745970" lon="6.482324">
        <ele>357.750000</ele>
        <time>2009-08-18T07:38:17Z</time>
      </trkpt>
      <trkpt lat="50.745865" lon="6.482319">
        <ele>355.830000</ele>
        <time>2009-08-18T07:38:31Z</time>
      </trkpt>
      <trkpt lat="50.745623" lon="6.482301">
        <ele>353.900000</ele>
        <time>2009-08-18T07:38:49Z</time>
      </trkpt>
      <trkpt lat="50.745431" lon="6.482252">
        <ele>352.460000</ele>
        <time>2009-08-18T07:39:02Z</time>
      </trkpt>
      <trkpt lat="50.745254" lon="6.482231">
        <ele>351.020000</ele>
        <time>2009-08-18T07:39:14Z</time>
      </trkpt>
      <trkpt lat="50.745220" lon="6.482226">
        <ele>350.540000</ele>
        <time>2009-08-18T07:39:17Z</time>
      </trkpt>
      <trkpt lat="50.745099" lon="6.482229">
        <ele>350.060000</ele>
        <time>2009-08-18T07:39:25Z</time>
      </trkpt>
      <trkpt lat="50.745021" lon="6.482227">
        <ele>349.100000</ele>
        <time>2009-08-18T07:39:30Z</time>
      </trkpt>
      <trkpt lat="50.744877" lon="6.482247">
        <ele>348.130000</ele>
        <time>2009-08-18T07:39:42Z</time>
      </trkpt>
      <trkpt lat="50.744882" lon="6.482172">
        <ele>347.170000</ele>
        <time>2009-08-18T07:39:47Z</time>
      </trkpt>
      <trkpt lat="50.744889" lon="6.481877">
        <ele>345.730000</ele>
        <time>2009-08-18T07:40:03Z</time>
      </trkpt>
      <trkpt lat="50.744794" lon="6.481615">
        <ele>343.330000</ele>
        <time>2009-08-18T07:40:25Z</time>
      </trkpt>
      <trkpt lat="50.744722" lon="6.481616">
        <ele>341.890000</ele>
        <time>2009-08-18T07:40:43Z</time>
      </trkpt>
      <trkpt lat="50.744625" lon="6.481650">
        <ele>340.920000</ele>
        <time>2009-08-18T07:40:53Z</time>
      </trkpt>
      <trkpt lat="50.744466" lon="6.481661">
        <ele>339.480000</ele>
        <time>2009-08-18T07:41:09Z</time>
      </trkpt>
      <trkpt lat="50.744239" lon="6.481873">
        <ele>337.080000</ele>
        <time>2009-08-18T07:41:31Z</time>
      </trkpt>
      <trkpt lat="50.744017" lon="6.482059">
        <ele>335.160000</ele>
        <time>2009-08-18T07:41:49Z</time>
      </trkpt>
      <trkpt lat="50.743997" lon="6.482089">
        <ele>335.160000</ele>
        <time>2009-08-18T07:41:51Z</time>
      </trkpt>
      <trkpt lat="50.743510" lon="6.482535">
        <ele>333.710000</ele>
        <time>2009-08-18T07:42:06Z</time>
      </trkpt>
      <trkpt lat="50.743433" lon="6.482589">
        <ele>333.710000</ele>
        <time>2009-08-18T07:42:09Z</time>
      </trkpt>
      <trkpt lat="50.743182" lon="6.482688">
        <ele>332.270000</ele>
        <time>2009-08-18T07:42:23Z</time>
      </trkpt>
      <trkpt lat="50.742843" lon="6.482755">
        <ele>331.310000</ele>
        <time>2009-08-18T07:42:35Z</time>
      </trkpt>
      <trkpt lat="50.742723" lon="6.482917">
        <ele>330.350000</ele>
        <time>2009-08-18T07:42:45Z</time>
      </trkpt>
      <trkpt lat="50.742654" lon="6.482920">
        <ele>328.910000</ele>
        <time>2009-08-18T07:42:53Z</time>
      </trkpt>
      <trkpt lat="50.742527" lon="6.483079">
        <ele>327.470000</ele>
        <time>2009-08-18T07:43:06Z</time>
      </trkpt>
      <trkpt lat="50.742539" lon="6.483115">
        <ele>326.500000</ele>
        <time>2009-08-18T07:43:17Z</time>
      </trkpt>
      <trkpt lat="50.742430" lon="6.483315">
        <ele>325.540000</ele>
        <time>2009-08-18T07:43:30Z</time>
      </trkpt>
      <trkpt lat="50.742430" lon="6.483332">
        <ele>325.540000</ele>
        <time>2009-08-18T07:43:31Z</time>
      </trkpt>
      <trkpt lat="50.742314" lon="6.483704">
        <ele>323.140000</ele>
        <time>2009-08-18T07:43:51Z</time>
      </trkpt>
      <trkpt lat="50.742241" lon="6.483835">
        <ele>320.740000</ele>
        <time>2009-08-18T07:44:14Z</time>
      </trkpt>
      <trkpt lat="50.742034" lon="6.484183">
        <ele>318.810000</ele>
        <time>2009-08-18T07:44:37Z</time>
      </trkpt>
      <trkpt lat="50.741953" lon="6.484409">
        <ele>317.850000</ele>
        <time>2009-08-18T07:44:47Z</time>
      </trkpt>
      <trkpt lat="50.741837" lon="6.484714">
        <ele>315.930000</ele>
        <time>2009-08-18T07:45:01Z</time>
      </trkpt>
      <trkpt lat="50.741808" lon="6.484776">
        <ele>315.450000</ele>
        <time>2009-08-18T07:45:06Z</time>
      </trkpt>
      <trkpt lat="50.741774" lon="6.484822">
        <ele>315.450000</ele>
        <time>2009-08-18T07:45:10Z</time>
      </trkpt>
      <trkpt lat="50.741612" lon="6.484925">
        <ele>314.490000</ele>
        <time>2009-08-18T07:45:23Z</time>
      </trkpt>
      <trkpt lat="50.741479" lon="6.485114">
        <ele>313.530000</ele>
        <time>2009-08-18T07:45:36Z</time>
      </trkpt>
      <trkpt lat="50.741401" lon="6.485275">
        <ele>313.530000</ele>
        <time>2009-08-18T07:45:51Z</time>
      </trkpt>
      <trkpt lat="50.741370" lon="6.485347">
        <ele>313.050000</ele>
        <time>2009-08-18T07:45:55Z</time>
      </trkpt>
      <trkpt lat="50.741201" lon="6.485548">
        <ele>313.050000</ele>
        <time>2009-08-18T07:46:09Z</time>
      </trkpt>
      <trkpt lat="50.741182" lon="6.485572">
        <ele>313.050000</ele>
        <time>2009-08-18T07:46:11Z</time>
      </trkpt>
      <trkpt lat="50.741110" lon="6.485673">
        <ele>313.050000</ele>
        <time>2009-08-18T07:46:17Z</time>
      </trkpt>
      <trkpt lat="50.741059" lon="6.485750">
        <ele>313.050000</ele>
        <time>2009-08-18T07:46:24Z</time>
      </trkpt>
      <trkpt lat="50.741052" lon="6.485846">
        <ele>313.050000</ele>
        <time>2009-08-18T07:46:37Z</time>
      </trkpt>
      <trkpt lat="50.741015" lon="6.485890">
        <ele>313.050000</ele>
        <time>2009-08-18T07:46:41Z</time>
      </trkpt>
      <trkpt lat="50.740863" lon="6.486205">
        <ele>312.570000</ele>
        <time>2009-08-18T07:46:58Z</time>
      </trkpt>
      <trkpt lat="50.740717" lon="6.486484">
        <ele>312.570000</ele>
        <time>2009-08-18T07:47:14Z</time>
      </trkpt>
      <trkpt lat="50.740600" lon="6.486851">
        <ele>313.530000</ele>
        <time>2009-08-18T07:47:29Z</time>
      </trkpt>
      <trkpt lat="50.740552" lon="6.487063">
        <ele>313.530000</ele>
        <time>2009-08-18T07:47:34Z</time>
      </trkpt>
      <trkpt lat="50.740475" lon="6.487404">
        <ele>313.050000</ele>
        <time>2009-08-18T07:47:40Z</time>
      </trkpt>
      <trkpt lat="50.740358" lon="6.487712">
        <ele>312.570000</ele>
        <time>2009-08-18T07:47:55Z</time>
      </trkpt>
      <trkpt lat="50.740212" lon="6.488024">
        <ele>311.600000</ele>
        <time>2009-08-18T07:48:09Z</time>
      </trkpt>
      <trkpt lat="50.740054" lon="6.488308">
        <ele>310.160000</ele>
        <time>2009-08-18T07:48:23Z</time>
      </trkpt>
      <trkpt lat="50.739844" lon="6.488468">
        <ele>308.720000</ele>
        <time>2009-08-18T07:48:38Z</time>
      </trkpt>
      <trkpt lat="50.739802" lon="6.488475">
        <ele>308.240000</ele>
        <time>2009-08-18T07:48:41Z</time>
      </trkpt>
      <trkpt lat="50.739712" lon="6.488492">
        <ele>307.760000</ele>
        <time>2009-08-18T07:48:47Z</time>
      </trkpt>
      <trkpt lat="50.739577" lon="6.488589">
        <ele>307.280000</ele>
        <time>2009-08-18T07:48:58Z</time>
      </trkpt>
      <trkpt lat="50.739428" lon="6.488665">
        <ele>306.320000</ele>
        <time>2009-08-18T07:49:09Z</time>
      </trkpt>
      <trkpt lat="50.739230" lon="6.488695">
        <ele>305.360000</ele>
        <time>2009-08-18T07:49:23Z</time>
      </trkpt>
      <trkpt lat="50.739064" lon="6.488699">
        <ele>304.390000</ele>
        <time>2009-08-18T07:49:33Z</time>
      </trkpt>
      <trkpt lat="50.738834" lon="6.488739">
        <ele>303.430000</ele>
        <time>2009-08-18T07:49:48Z</time>
      </trkpt>
      <trkpt lat="50.738788" lon="6.488736">
        <ele>302.470000</ele>
        <time>2009-08-18T07:49:52Z</time>
      </trkpt>
      <trkpt lat="50.738407" lon="6.488714">
        <ele>300.550000</ele>
        <time>2009-08-18T07:50:17Z</time>
      </trkpt>
      <trkpt lat="50.738149" lon="6.488771">
        <ele>298.150000</ele>
        <time>2009-08-18T07:50:36Z</time>
      </trkpt>
      <trkpt lat="50.738068" lon="6.488643">
        <ele>297.180000</ele>
        <time>2009-08-18T07:50:51Z</time>
      </trkpt>
      <trkpt lat="50.737962" lon="6.488781">
        <ele>294.780000</ele>
        <time>2009-08-18T07:51:13Z</time>
      </trkpt>
      <trkpt lat="50.737726" lon="6.488803">
        <ele>293.340000</ele>
        <time>2009-08-18T07:51:35Z</time>
      </trkpt>
      <trkpt lat="50.737468" lon="6.488944">
        <ele>291.900000</ele>
        <time>2009-08-18T07:51:51Z</time>
      </trkpt>
      <trkpt lat="50.737230" lon="6.489095">
        <ele>290.940000</ele>
        <time>2009-08-18T07:52:11Z</time>
      </trkpt>
      <trkpt lat="50.736938" lon="6.489075">
        <ele>289.970000</ele>
        <time>2009-08-18T07:52:33Z</time>
      </trkpt>
      <trkpt lat="50.736642" lon="6.489245">
        <ele>289.010000</ele>
        <time>2009-08-18T07:52:49Z</time>
      </trkpt>
      <trkpt lat="50.736423" lon="6.489462">
        <ele>287.570000</ele>
        <time>2009-08-18T07:53:06Z</time>
      </trkpt>
      <trkpt lat="50.736373" lon="6.489630">
        <ele>287.090000</ele>
        <time>2009-08-18T07:53:20Z</time>
      </trkpt>
      <trkpt lat="50.736225" lon="6.489662">
        <ele>284.690000</ele>
        <time>2009-08-18T07:53:49Z</time>
      </trkpt>
      <trkpt lat="50.736166" lon="6.489681">
        <ele>284.690000</ele>
        <time>2009-08-18T07:53:53Z</time>
      </trkpt>
      <trkpt lat="50.736073" lon="6.489618">
        <ele>285.650000</ele>
        <time>2009-08-18T07:54:02Z</time>
      </trkpt>
      <trkpt lat="50.736018" lon="6.489273">
        <ele>282.280000</ele>
        <time>2009-08-18T07:54:19Z</time>
      </trkpt>
      <trkpt lat="50.735989" lon="6.488963">
        <ele>283.730000</ele>
        <time>2009-08-18T07:54:39Z</time>
      </trkpt>
      <trkpt lat="50.735968" lon="6.488795">
        <ele>281.800000</ele>
        <time>2009-08-18T07:55:06Z</time>
      </trkpt>
      <trkpt lat="50.735880" lon="6.488651">
        <ele>279.880000</ele>
        <time>2009-08-18T07:55:21Z</time>
      </trkpt>
      <trkpt lat="50.735673" lon="6.488620">
        <ele>278.920000</ele>
        <time>2009-08-18T07:55:41Z</time>
      </trkpt>
      <trkpt lat="50.735446" lon="6.488686">
        <ele>278.440000</ele>
        <time>2009-08-18T07:55:54Z</time>
      </trkpt>
      <trkpt lat="50.735384" lon="6.488701">
        <ele>277.960000</ele>
        <time>2009-08-18T07:55:58Z</time>
      </trkpt>
      <trkpt lat="50.735349" lon="6.488735">
        <ele>277.480000</ele>
        <time>2009-08-18T07:56:02Z</time>
      </trkpt>
      <trkpt lat="50.735105" lon="6.488785">
        <ele>276.520000</ele>
        <time>2009-08-18T07:56:16Z</time>
      </trkpt>
      <trkpt lat="50.734941" lon="6.488804">
        <ele>276.040000</ele>
        <time>2009-08-18T07:56:29Z</time>
      </trkpt>
      <trkpt lat="50.734758" lon="6.488746">
        <ele>274.590000</ele>
        <time>2009-08-18T07:56:42Z</time>
      </trkpt>
      <trkpt lat="50.734583" lon="6.488714">
        <ele>273.630000</ele>
        <time>2009-08-18T07:56:53Z</time>
      </trkpt>
      <trkpt lat="50.734337" lon="6.488673">
        <ele>273.630000</ele>
        <time>2009-08-18T07:57:08Z</time>
      </trkpt>
      <trkpt lat="50.734110" lon="6.488590">
        <ele>272.670000</ele>
        <time>2009-08-18T07:57:23Z</time>
      </trkpt>
      <trkpt lat="50.733888" lon="6.488528">
        <ele>271.710000</ele>
        <time>2009-08-18T07:57:37Z</time>
      </trkpt>
      <trkpt lat="50.733631" lon="6.488541">
        <ele>270.270000</ele>
        <time>2009-08-18T07:57:53Z</time>
      </trkpt>
      <trkpt lat="50.733388" lon="6.488607">
        <ele>268.350000</ele>
        <time>2009-08-18T07:58:07Z</time>
      </trkpt>
      <trkpt lat="50.733163" lon="6.488655">
        <ele>267.860000</ele>
        <time>2009-08-18T07:58:21Z</time>
      </trkpt>
      <trkpt lat="50.732991" lon="6.488664">
        <ele>266.900000</ele>
        <time>2009-08-18T07:58:34Z</time>
      </trkpt>
      <trkpt lat="50.732846" lon="6.488431">
        <ele>266.420000</ele>
        <time>2009-08-18T07:58:48Z</time>
      </trkpt>
      <trkpt lat="50.732735" lon="6.488115">
        <ele>265.460000</ele>
        <time>2009-08-18T07:59:02Z</time>
      </trkpt>
      <trkpt lat="50.732711" lon="6.487785">
        <ele>264.500000</ele>
        <time>2009-08-18T07:59:15Z</time>
      </trkpt>
      <trkpt lat="50.732670" lon="6.487417">
        <ele>264.020000</ele>
        <time>2009-08-18T07:59:29Z</time>
      </trkpt>
      <trkpt lat="50.732645" lon="6.487149">
        <ele>262.580000</ele>
        <time>2009-08-18T07:59:42Z</time>
      </trkpt>
      <trkpt lat="50.732686" lon="6.486751">
        <ele>261.620000</ele>
        <time>2009-08-18T07:59:58Z</time>
      </trkpt>
      <trkpt lat="50.732735" lon="6.486488">
        <ele>261.140000</ele>
        <time>2009-08-18T08:00:09Z</time>
      </trkpt>
      <trkpt lat="50.732849" lon="6.486074">
        <ele>260.170000</ele>
        <time>2009-08-18T08:00:25Z</time>
      </trkpt>
      <trkpt lat="50.732892" lon="6.485923">
        <ele>259.690000</ele>
        <time>2009-08-18T08:00:32Z</time>
      </trkpt>
      <trkpt lat="50.732803" lon="6.485562">
        <ele>259.210000</ele>
        <time>2009-08-18T08:00:48Z</time>
      </trkpt>
      <trkpt lat="50.732700" lon="6.485276">
        <ele>259.210000</ele>
        <time>2009-08-18T08:01:02Z</time>
      </trkpt>
      <trkpt lat="50.732530" lon="6.485004">
        <ele>258.250000</ele>
        <time>2009-08-18T08:01:17Z</time>
      </trkpt>
      <trkpt lat="50.732374" lon="6.484809">
        <ele>257.290000</ele>
        <time>2009-08-18T08:01:30Z</time>
      </trkpt>
      <trkpt lat="50.732196" lon="6.484592">
        <ele>256.810000</ele>
        <time>2009-08-18T08:01:46Z</time>
      </trkpt>
      <trkpt lat="50.732053" lon="6.484319">
        <ele>255.850000</ele>
        <time>2009-08-18T08:02:02Z</time>
      </trkpt>
      <trkpt lat="50.731914" lon="6.484040">
        <ele>254.890000</ele>
        <time>2009-08-18T08:02:17Z</time>
      </trkpt>
      <trkpt lat="50.731783" lon="6.483729">
        <ele>254.410000</ele>
        <time>2009-08-18T08:02:33Z</time>
      </trkpt>
      <trkpt lat="50.731756" lon="6.483362">
        <ele>253.440000</ele>
        <time>2009-08-18T08:02:49Z</time>
      </trkpt>
      <trkpt lat="50.731609" lon="6.483064">
        <ele>252.480000</ele>
        <time>2009-08-18T08:03:05Z</time>
      </trkpt>
      <trkpt lat="50.731430" lon="6.482933">
        <ele>252.000000</ele>
        <time>2009-08-18T08:03:19Z</time>
      </trkpt>
      <trkpt lat="50.731387" lon="6.482882">
        <ele>250.560000</ele>
        <time>2009-08-18T08:03:32Z</time>
      </trkpt>
      <trkpt lat="50.731387" lon="6.482884">
        <ele>249.120000</ele>
        <time>2009-08-18T08:03:36Z</time>
      </trkpt>
      <trkpt lat="50.731388" lon="6.482951">
        <ele>249.120000</ele>
        <time>2009-08-18T08:03:42Z</time>
      </trkpt>
      <trkpt lat="50.731354" lon="6.483063">
        <ele>248.160000</ele>
        <time>2009-08-18T08:03:59Z</time>
      </trkpt>
      <trkpt lat="50.731378" lon="6.483094">
        <ele>246.230000</ele>
        <time>2009-08-18T08:04:34Z</time>
      </trkpt>
      <trkpt lat="50.731379" lon="6.483174">
        <ele>246.230000</ele>
        <time>2009-08-18T08:04:41Z</time>
      </trkpt>
      <trkpt lat="50.731283" lon="6.483152">
        <ele>244.310000</ele>
        <time>2009-08-18T08:04:59Z</time>
      </trkpt>
      <trkpt lat="50.731318" lon="6.483114">
        <ele>244.790000</ele>
        <time>2009-08-18T08:05:04Z</time>
      </trkpt>
      <trkpt lat="50.731372" lon="6.482900">
        <ele>246.230000</ele>
        <time>2009-08-18T08:05:19Z</time>
      </trkpt>
      <trkpt lat="50.731335" lon="6.482814">
        <ele>246.230000</ele>
        <time>2009-08-18T08:05:24Z</time>
      </trkpt>
      <trkpt lat="50.731260" lon="6.482701">
        <ele>245.750000</ele>
        <time>2009-08-18T08:05:31Z</time>
      </trkpt>
      <trkpt lat="50.731101" lon="6.482406">
        <ele>244.310000</ele>
        <time>2009-08-18T08:05:47Z</time>
      </trkpt>
      <trkpt lat="50.730934" lon="6.482179">
        <ele>243.830000</ele>
        <time>2009-08-18T08:06:01Z</time>
      </trkpt>
      <trkpt lat="50.730764" lon="6.481983">
        <ele>243.350000</ele>
        <time>2009-08-18T08:06:15Z</time>
      </trkpt>
      <trkpt lat="50.730584" lon="6.481785">
        <ele>242.870000</ele>
        <time>2009-08-18T08:06:29Z</time>
      </trkpt>
      <trkpt lat="50.730424" lon="6.481614">
        <ele>241.910000</ele>
        <time>2009-08-18T08:06:44Z</time>
      </trkpt>
      <trkpt lat="50.730341" lon="6.481530">
        <ele>241.910000</ele>
        <time>2009-08-18T08:06:50Z</time>
      </trkpt>
      <trkpt lat="50.730167" lon="6.481315">
        <ele>240.950000</ele>
        <time>2009-08-18T08:07:05Z</time>
      </trkpt>
      <trkpt lat="50.730103" lon="6.481256">
        <ele>240.950000</ele>
        <time>2009-08-18T08:07:09Z</time>
      </trkpt>
      <trkpt lat="50.729896" lon="6.481011">
        <ele>239.990000</ele>
        <time>2009-08-18T08:07:26Z</time>
      </trkpt>
      <trkpt lat="50.729743" lon="6.480836">
        <ele>239.510000</ele>
        <time>2009-08-18T08:07:38Z</time>
      </trkpt>
      <trkpt lat="50.729603" lon="6.480594">
        <ele>238.540000</ele>
        <time>2009-08-18T08:07:52Z</time>
      </trkpt>
      <trkpt lat="50.729446" lon="6.480388">
        <ele>238.060000</ele>
        <time>2009-08-18T08:08:06Z</time>
      </trkpt>
      <trkpt lat="50.729274" lon="6.480203">
        <ele>237.580000</ele>
        <time>2009-08-18T08:08:18Z</time>
      </trkpt>
      <trkpt lat="50.729079" lon="6.479985">
        <ele>236.620000</ele>
        <time>2009-08-18T08:08:33Z</time>
      </trkpt>
      <trkpt lat="50.728915" lon="6.479760">
        <ele>236.140000</ele>
        <time>2009-08-18T08:08:48Z</time>
      </trkpt>
      <trkpt lat="50.728774" lon="6.479572">
        <ele>236.620000</ele>
        <time>2009-08-18T08:09:01Z</time>
      </trkpt>
      <trkpt lat="50.728581" lon="6.479375">
        <ele>235.180000</ele>
        <time>2009-08-18T08:09:16Z</time>
      </trkpt>
      <trkpt lat="50.728418" lon="6.479198">
        <ele>234.700000</ele>
        <time>2009-08-18T08:09:29Z</time>
      </trkpt>
      <trkpt lat="50.728323" lon="6.479077">
        <ele>234.220000</ele>
        <time>2009-08-18T08:09:39Z</time>
      </trkpt>
      <trkpt lat="50.728228" lon="6.478988">
        <ele>233.740000</ele>
        <time>2009-08-18T08:09:45Z</time>
      </trkpt>
      <trkpt lat="50.728089" lon="6.478782">
        <ele>233.260000</ele>
        <time>2009-08-18T08:09:58Z</time>
      </trkpt>
      <trkpt lat="50.727890" lon="6.478588">
        <ele>232.780000</ele>
        <time>2009-08-18T08:10:14Z</time>
      </trkpt>
      <trkpt lat="50.727833" lon="6.478537">
        <ele>232.780000</ele>
        <time>2009-08-18T08:10:17Z</time>
      </trkpt>
      <trkpt lat="50.727709" lon="6.478312">
        <ele>232.300000</ele>
        <time>2009-08-18T08:10:31Z</time>
      </trkpt>
      <trkpt lat="50.727701" lon="6.478300">
        <ele>232.300000</ele>
        <time>2009-08-18T08:10:32Z</time>
      </trkpt>
      <trkpt lat="50.727610" lon="6.478192">
        <ele>231.810000</ele>
        <time>2009-08-18T08:10:45Z</time>
      </trkpt>
      <trkpt lat="50.727527" lon="6.478241">
        <ele>231.330000</ele>
        <time>2009-08-18T08:11:01Z</time>
      </trkpt>
      <trkpt lat="50.727386" lon="6.478588">
        <ele>230.850000</ele>
        <time>2009-08-18T08:11:15Z</time>
      </trkpt>
      <trkpt lat="50.727366" lon="6.478671">
        <ele>230.850000</ele>
        <time>2009-08-18T08:11:19Z</time>
      </trkpt>
      <trkpt lat="50.727195" lon="6.478981">
        <ele>230.370000</ele>
        <time>2009-08-18T08:11:35Z</time>
      </trkpt>
      <trkpt lat="50.727189" lon="6.479033">
        <ele>230.370000</ele>
        <time>2009-08-18T08:11:44Z</time>
      </trkpt>
      <trkpt lat="50.726973" lon="6.479016">
        <ele>230.370000</ele>
        <time>2009-08-18T08:11:56Z</time>
      </trkpt>
      <trkpt lat="50.726952" lon="6.478997">
        <ele>230.370000</ele>
        <time>2009-08-18T08:11:58Z</time>
      </trkpt>
      <trkpt lat="50.726928" lon="6.478895">
        <ele>229.890000</ele>
        <time>2009-08-18T08:12:03Z</time>
      </trkpt>
      <trkpt lat="50.726756" lon="6.478567">
        <ele>229.410000</ele>
        <time>2009-08-18T08:12:20Z</time>
      </trkpt>
      <trkpt lat="50.726752" lon="6.478551">
        <ele>229.410000</ele>
        <time>2009-08-18T08:12:21Z</time>
      </trkpt>
      <trkpt lat="50.726676" lon="6.478506">
        <ele>229.410000</ele>
        <time>2009-08-18T08:12:26Z</time>
      </trkpt>
      <trkpt lat="50.726594" lon="6.478498">
        <ele>229.410000</ele>
        <time>2009-08-18T08:12:32Z</time>
      </trkpt>
      <trkpt lat="50.726576" lon="6.478496">
        <ele>229.410000</ele>
        <time>2009-08-18T08:12:34Z</time>
      </trkpt>
      <trkpt lat="50.726525" lon="6.478487">
        <ele>229.410000</ele>
        <time>2009-08-18T08:12:37Z</time>
      </trkpt>
      <trkpt lat="50.726363" lon="6.478422">
        <ele>229.890000</ele>
        <time>2009-08-18T08:12:48Z</time>
      </trkpt>
      <trkpt lat="50.726207" lon="6.478380">
        <ele>230.850000</ele>
        <time>2009-08-18T08:13:02Z</time>
      </trkpt>
      <trkpt lat="50.726061" lon="6.478319">
        <ele>231.330000</ele>
        <time>2009-08-18T08:13:13Z</time>
      </trkpt>
      <trkpt lat="50.725974" lon="6.478239">
        <ele>231.330000</ele>
        <time>2009-08-18T08:13:18Z</time>
      </trkpt>
      <trkpt lat="50.725813" lon="6.478111">
        <ele>231.810000</ele>
        <time>2009-08-18T08:13:31Z</time>
      </trkpt>
      <trkpt lat="50.725721" lon="6.478054">
        <ele>231.810000</ele>
        <time>2009-08-18T08:13:37Z</time>
      </trkpt>
      <trkpt lat="50.725649" lon="6.477918">
        <ele>232.300000</ele>
        <time>2009-08-18T08:13:44Z</time>
      </trkpt>
      <trkpt lat="50.725593" lon="6.477663">
        <ele>233.740000</ele>
        <time>2009-08-18T08:13:55Z</time>
      </trkpt>
      <trkpt lat="50.725559" lon="6.477509">
        <ele>233.740000</ele>
        <time>2009-08-18T08:14:02Z</time>
      </trkpt>
      <trkpt lat="50.725487" lon="6.477255">
        <ele>234.700000</ele>
        <time>2009-08-18T08:14:14Z</time>
      </trkpt>
      <trkpt lat="50.725397" lon="6.477084">
        <ele>235.660000</ele>
        <time>2009-08-18T08:14:27Z</time>
      </trkpt>
      <trkpt lat="50.725390" lon="6.477026">
        <ele>235.660000</ele>
        <time>2009-08-18T08:14:30Z</time>
      </trkpt>
      <trkpt lat="50.725300" lon="6.476782">
        <ele>236.620000</ele>
        <time>2009-08-18T08:14:43Z</time>
      </trkpt>
      <trkpt lat="50.725249" lon="6.476708">
        <ele>237.100000</ele>
        <time>2009-08-18T08:14:48Z</time>
      </trkpt>
      <trkpt lat="50.725058" lon="6.476644">
        <ele>236.620000</ele>
        <time>2009-08-18T08:15:01Z</time>
      </trkpt>
      <trkpt lat="50.725011" lon="6.476564">
        <ele>237.580000</ele>
        <time>2009-08-18T08:15:06Z</time>
      </trkpt>
      <trkpt lat="50.724986" lon="6.476527">
        <ele>237.580000</ele>
        <time>2009-08-18T08:15:09Z</time>
      </trkpt>
      <trkpt lat="50.724908" lon="6.476480">
        <ele>238.060000</ele>
        <time>2009-08-18T08:15:24Z</time>
      </trkpt>
      <trkpt lat="50.724817" lon="6.476469">
        <ele>238.540000</ele>
        <time>2009-08-18T08:15:31Z</time>
      </trkpt>
      <trkpt lat="50.724624" lon="6.476288">
        <ele>241.910000</ele>
        <time>2009-08-18T08:15:51Z</time>
      </trkpt>
      <trkpt lat="50.724469" lon="6.476009">
        <ele>244.310000</ele>
        <time>2009-08-18T08:16:09Z</time>
      </trkpt>
      <trkpt lat="50.724373" lon="6.475916">
        <ele>244.790000</ele>
        <time>2009-08-18T08:16:16Z</time>
      </trkpt>
      <trkpt lat="50.724339" lon="6.475880">
        <ele>244.790000</ele>
        <time>2009-08-18T08:16:27Z</time>
      </trkpt>
      <trkpt lat="50.724347" lon="6.475864">
        <ele>245.270000</ele>
        <time>2009-08-18T08:16:32Z</time>
      </trkpt>
      <trkpt lat="50.724253" lon="6.475739">
        <ele>245.750000</ele>
        <time>2009-08-18T08:16:40Z</time>
      </trkpt>
      <trkpt lat="50.724157" lon="6.475553">
        <ele>247.200000</ele>
        <time>2009-08-18T08:16:52Z</time>
      </trkpt>
      <trkpt lat="50.724117" lon="6.475500">
        <ele>247.200000</ele>
        <time>2009-08-18T08:16:56Z</time>
      </trkpt>
      <trkpt lat="50.724012" lon="6.475325">
        <ele>248.160000</ele>
        <time>2009-08-18T08:17:08Z</time>
      </trkpt>
      <trkpt lat="50.723913" lon="6.475194">
        <ele>249.120000</ele>
        <time>2009-08-18T08:17:16Z</time>
      </trkpt>
      <trkpt lat="50.723827" lon="6.475142">
        <ele>250.080000</ele>
        <time>2009-08-18T08:17:22Z</time>
      </trkpt>
      <trkpt lat="50.723792" lon="6.475089">
        <ele>249.600000</ele>
        <time>2009-08-18T08:17:34Z</time>
      </trkpt>
      <trkpt lat="50.723632" lon="6.474940">
        <ele>251.040000</ele>
        <time>2009-08-18T08:17:47Z</time>
      </trkpt>
      <trkpt lat="50.723506" lon="6.474695">
        <ele>252.480000</ele>
        <time>2009-08-18T08:17:59Z</time>
      </trkpt>
      <trkpt lat="50.723461" lon="6.474585">
        <ele>252.480000</ele>
        <time>2009-08-18T08:18:05Z</time>
      </trkpt>
      <trkpt lat="50.723396" lon="6.474509">
        <ele>252.960000</ele>
        <time>2009-08-18T08:18:12Z</time>
      </trkpt>
      <trkpt lat="50.723351" lon="6.474483">
        <ele>253.440000</ele>
        <time>2009-08-18T08:18:16Z</time>
      </trkpt>
      <trkpt lat="50.723333" lon="6.474444">
        <ele>253.930000</ele>
        <time>2009-08-18T08:18:18Z</time>
      </trkpt>
      <trkpt lat="50.723272" lon="6.474049">
        <ele>254.890000</ele>
        <time>2009-08-18T08:18:34Z</time>
      </trkpt>
      <trkpt lat="50.723257" lon="6.474024">
        <ele>254.890000</ele>
        <time>2009-08-18T08:18:36Z</time>
      </trkpt>
      <trkpt lat="50.723269" lon="6.473908">
        <ele>255.850000</ele>
        <time>2009-08-18T08:18:41Z</time>
      </trkpt>
      <trkpt lat="50.723264" lon="6.473783">
        <ele>256.330000</ele>
        <time>2009-08-18T08:18:47Z</time>
      </trkpt>
      <trkpt lat="50.723198" lon="6.473482">
        <ele>257.770000</ele>
        <time>2009-08-18T08:19:01Z</time>
      </trkpt>
      <trkpt lat="50.723128" lon="6.473307">
        <ele>259.210000</ele>
        <time>2009-08-18T08:19:11Z</time>
      </trkpt>
      <trkpt lat="50.723094" lon="6.473151">
        <ele>259.690000</ele>
        <time>2009-08-18T08:19:19Z</time>
      </trkpt>
      <trkpt lat="50.723037" lon="6.472869">
        <ele>260.650000</ele>
        <time>2009-08-18T08:19:34Z</time>
      </trkpt>
      <trkpt lat="50.723012" lon="6.472799">
        <ele>261.140000</ele>
        <time>2009-08-18T08:19:38Z</time>
      </trkpt>
      <trkpt lat="50.722950" lon="6.472608">
        <ele>261.620000</ele>
        <time>2009-08-18T08:19:48Z</time>
      </trkpt>
      <trkpt lat="50.722937" lon="6.472560">
        <ele>262.100000</ele>
        <time>2009-08-18T08:19:50Z</time>
      </trkpt>
      <trkpt lat="50.722919" lon="6.472511">
        <ele>262.100000</ele>
        <time>2009-08-18T08:19:53Z</time>
      </trkpt>
      <trkpt lat="50.722810" lon="6.472287">
        <ele>263.540000</ele>
        <time>2009-08-18T08:20:07Z</time>
      </trkpt>
      <trkpt lat="50.722788" lon="6.472207">
        <ele>264.020000</ele>
        <time>2009-08-18T08:20:12Z</time>
      </trkpt>
      <trkpt lat="50.722756" lon="6.472153">
        <ele>264.500000</ele>
        <time>2009-08-18T08:20:16Z</time>
      </trkpt>
      <trkpt lat="50.722730" lon="6.472044">
        <ele>265.460000</ele>
        <time>2009-08-18T08:20:22Z</time>
      </trkpt>
      <trkpt lat="50.722701" lon="6.471821">
        <ele>266.900000</ele>
        <time>2009-08-18T08:20:33Z</time>
      </trkpt>
      <trkpt lat="50.722687" lon="6.471585">
        <ele>268.350000</ele>
        <time>2009-08-18T08:20:46Z</time>
      </trkpt>
      <trkpt lat="50.722691" lon="6.471541">
        <ele>268.830000</ele>
        <time>2009-08-18T08:20:49Z</time>
      </trkpt>
      <trkpt lat="50.722619" lon="6.471408">
        <ele>269.310000</ele>
        <time>2009-08-18T08:20:57Z</time>
      </trkpt>
      <trkpt lat="50.722572" lon="6.471361">
        <ele>269.310000</ele>
        <time>2009-08-18T08:21:00Z</time>
      </trkpt>
      <trkpt lat="50.722519" lon="6.471194">
        <ele>270.270000</ele>
        <time>2009-08-18T08:21:08Z</time>
      </trkpt>
      <trkpt lat="50.722455" lon="6.470995">
        <ele>270.750000</ele>
        <time>2009-08-18T08:21:18Z</time>
      </trkpt>
      <trkpt lat="50.722394" lon="6.470972">
        <ele>271.710000</ele>
        <time>2009-08-18T08:21:28Z</time>
      </trkpt>
      <trkpt lat="50.722373" lon="6.471018">
        <ele>271.230000</ele>
        <time>2009-08-18T08:21:45Z</time>
      </trkpt>
      <trkpt lat="50.722371" lon="6.470976">
        <ele>271.710000</ele>
        <time>2009-08-18T08:21:54Z</time>
      </trkpt>
      <trkpt lat="50.722292" lon="6.470601">
        <ele>272.670000</ele>
        <time>2009-08-18T08:22:08Z</time>
      </trkpt>
      <trkpt lat="50.722249" lon="6.470352">
        <ele>274.110000</ele>
        <time>2009-08-18T08:22:20Z</time>
      </trkpt>
      <trkpt lat="50.722131" lon="6.470078">
        <ele>276.520000</ele>
        <time>2009-08-18T08:22:36Z</time>
      </trkpt>
      <trkpt lat="50.722081" lon="6.469879">
        <ele>277.000000</ele>
        <time>2009-08-18T08:22:50Z</time>
      </trkpt>
      <trkpt lat="50.722077" lon="6.469794">
        <ele>277.480000</ele>
        <time>2009-08-18T08:22:55Z</time>
      </trkpt>
      <trkpt lat="50.722121" lon="6.469651">
        <ele>277.960000</ele>
        <time>2009-08-18T08:23:09Z</time>
      </trkpt>
      <trkpt lat="50.722175" lon="6.469423">
        <ele>277.480000</ele>
        <time>2009-08-18T08:23:26Z</time>
      </trkpt>
      <trkpt lat="50.722191" lon="6.469388">
        <ele>277.480000</ele>
        <time>2009-08-18T08:23:27Z</time>
      </trkpt>
      <trkpt lat="50.722295" lon="6.469019">
        <ele>277.960000</ele>
        <time>2009-08-18T08:23:43Z</time>
      </trkpt>
      <trkpt lat="50.722336" lon="6.468798">
        <ele>278.440000</ele>
        <time>2009-08-18T08:23:55Z</time>
      </trkpt>
      <trkpt lat="50.722343" lon="6.468782">
        <ele>278.920000</ele>
        <time>2009-08-18T08:23:56Z</time>
      </trkpt>
      <trkpt lat="50.722345" lon="6.468584">
        <ele>278.440000</ele>
        <time>2009-08-18T08:24:05Z</time>
      </trkpt>
      <trkpt lat="50.722326" lon="6.468475">
        <ele>278.440000</ele>
        <time>2009-08-18T08:24:10Z</time>
      </trkpt>
      <trkpt lat="50.722290" lon="6.468304">
        <ele>278.440000</ele>
        <time>2009-08-18T08:24:17Z</time>
      </trkpt>
      <trkpt lat="50.722309" lon="6.468055">
        <ele>278.920000</ele>
        <time>2009-08-18T08:24:31Z</time>
      </trkpt>
      <trkpt lat="50.722242" lon="6.467714">
        <ele>278.440000</ele>
        <time>2009-08-18T08:24:49Z</time>
      </trkpt>
      <trkpt lat="50.722202" lon="6.467506">
        <ele>277.480000</ele>
        <time>2009-08-18T08:25:08Z</time>
      </trkpt>
      <trkpt lat="50.722061" lon="6.467023">
        <ele>277.000000</ele>
        <time>2009-08-18T08:25:29Z</time>
      </trkpt>
      <trkpt lat="50.722044" lon="6.466935">
        <ele>276.520000</ele>
        <time>2009-08-18T08:25:35Z</time>
      </trkpt>
      <trkpt lat="50.721997" lon="6.466841">
        <ele>276.040000</ele>
        <time>2009-08-18T08:25:40Z</time>
      </trkpt>
      <trkpt lat="50.721966" lon="6.466631">
        <ele>275.070000</ele>
        <time>2009-08-18T08:25:49Z</time>
      </trkpt>
      <trkpt lat="50.721885" lon="6.466343">
        <ele>273.630000</ele>
        <time>2009-08-18T08:26:04Z</time>
      </trkpt>
      <trkpt lat="50.721864" lon="6.466020">
        <ele>273.630000</ele>
        <time>2009-08-18T08:26:17Z</time>
      </trkpt>
      <trkpt lat="50.721858" lon="6.465773">
        <ele>273.150000</ele>
        <time>2009-08-18T08:26:28Z</time>
      </trkpt>
      <trkpt lat="50.721862" lon="6.465691">
        <ele>273.150000</ele>
        <time>2009-08-18T08:26:32Z</time>
      </trkpt>
      <trkpt lat="50.721837" lon="6.465484">
        <ele>273.150000</ele>
        <time>2009-08-18T08:26:41Z</time>
      </trkpt>
      <trkpt lat="50.721835" lon="6.465216">
        <ele>274.110000</ele>
        <time>2009-08-18T08:26:54Z</time>
      </trkpt>
      <trkpt lat="50.721862" lon="6.465033">
        <ele>273.630000</ele>
        <time>2009-08-18T08:27:02Z</time>
      </trkpt>
      <trkpt lat="50.721819" lon="6.464788">
        <ele>274.110000</ele>
        <time>2009-08-18T08:27:12Z</time>
      </trkpt>
      <trkpt lat="50.721755" lon="6.464657">
        <ele>274.590000</ele>
        <time>2009-08-18T08:27:20Z</time>
      </trkpt>
      <trkpt lat="50.721742" lon="6.464400">
        <ele>275.560000</ele>
        <time>2009-08-18T08:27:33Z</time>
      </trkpt>
      <trkpt lat="50.721688" lon="6.464072">
        <ele>276.040000</ele>
        <time>2009-08-18T08:27:48Z</time>
      </trkpt>
      <trkpt lat="50.721617" lon="6.463802">
        <ele>277.960000</ele>
        <time>2009-08-18T08:28:03Z</time>
      </trkpt>
      <trkpt lat="50.721609" lon="6.463768">
        <ele>277.960000</ele>
        <time>2009-08-18T08:28:05Z</time>
      </trkpt>
      <trkpt lat="50.721590" lon="6.463687">
        <ele>277.960000</ele>
        <time>2009-08-18T08:28:09Z</time>
      </trkpt>
      <trkpt lat="50.721547" lon="6.463434">
        <ele>279.400000</ele>
        <time>2009-08-18T08:28:24Z</time>
      </trkpt>
      <trkpt lat="50.721543" lon="6.463101">
        <ele>280.360000</ele>
        <time>2009-08-18T08:28:39Z</time>
      </trkpt>
      <trkpt lat="50.721479" lon="6.462909">
        <ele>280.840000</ele>
        <time>2009-08-18T08:28:52Z</time>
      </trkpt>
      <trkpt lat="50.721384" lon="6.462710">
        <ele>281.320000</ele>
        <time>2009-08-18T08:29:06Z</time>
      </trkpt>
      <trkpt lat="50.721354" lon="6.462687">
        <ele>280.840000</ele>
        <time>2009-08-18T08:29:18Z</time>
      </trkpt>
      <trkpt lat="50.721343" lon="6.462316">
        <ele>281.800000</ele>
        <time>2009-08-18T08:29:32Z</time>
      </trkpt>
      <trkpt lat="50.721309" lon="6.461971">
        <ele>282.280000</ele>
        <time>2009-08-18T08:29:45Z</time>
      </trkpt>
      <trkpt lat="50.721257" lon="6.461672">
        <ele>282.770000</ele>
        <time>2009-08-18T08:29:59Z</time>
      </trkpt>
      <trkpt lat="50.721259" lon="6.461641">
        <ele>282.770000</ele>
        <time>2009-08-18T08:30:00Z</time>
      </trkpt>
      <trkpt lat="50.721251" lon="6.461598">
        <ele>282.770000</ele>
        <time>2009-08-18T08:30:02Z</time>
      </trkpt>
      <trkpt lat="50.721217" lon="6.461470">
        <ele>283.250000</ele>
        <time>2009-08-18T08:30:09Z</time>
      </trkpt>
      <trkpt lat="50.721199" lon="6.461220">
        <ele>283.730000</ele>
        <time>2009-08-18T08:30:20Z</time>
      </trkpt>
      <trkpt lat="50.721151" lon="6.461036">
        <ele>283.730000</ele>
        <time>2009-08-18T08:30:28Z</time>
      </trkpt>
      <trkpt lat="50.721111" lon="6.460891">
        <ele>284.210000</ele>
        <time>2009-08-18T08:30:36Z</time>
      </trkpt>
      <trkpt lat="50.721013" lon="6.460728">
        <ele>283.730000</ele>
        <time>2009-08-18T08:30:49Z</time>
      </trkpt>
      <trkpt lat="50.721006" lon="6.460698">
        <ele>283.730000</ele>
        <time>2009-08-18T08:30:51Z</time>
      </trkpt>
      <trkpt lat="50.720777" lon="6.460632">
        <ele>282.280000</ele>
        <time>2009-08-18T08:31:05Z</time>
      </trkpt>
      <trkpt lat="50.720731" lon="6.460609">
        <ele>281.800000</ele>
        <time>2009-08-18T08:31:08Z</time>
      </trkpt>
      <trkpt lat="50.720674" lon="6.460538">
        <ele>281.800000</ele>
        <time>2009-08-18T08:31:12Z</time>
      </trkpt>
      <trkpt lat="50.720475" lon="6.460489">
        <ele>279.880000</ele>
        <time>2009-08-18T08:31:27Z</time>
      </trkpt>
      <trkpt lat="50.720425" lon="6.460462">
        <ele>280.840000</ele>
        <time>2009-08-18T08:31:41Z</time>
      </trkpt>
      <trkpt lat="50.720216" lon="6.460551">
        <ele>281.800000</ele>
        <time>2009-08-18T08:31:56Z</time>
      </trkpt>
      <trkpt lat="50.720081" lon="6.460449">
        <ele>284.210000</ele>
        <time>2009-08-18T08:32:13Z</time>
      </trkpt>
      <trkpt lat="50.719928" lon="6.460260">
        <ele>287.570000</ele>
        <time>2009-08-18T08:32:28Z</time>
      </trkpt>
      <trkpt lat="50.719698" lon="6.460164">
        <ele>289.970000</ele>
        <time>2009-08-18T08:32:45Z</time>
      </trkpt>
      <trkpt lat="50.719554" lon="6.460056">
        <ele>293.340000</ele>
        <time>2009-08-18T08:33:01Z</time>
      </trkpt>
      <trkpt lat="50.719445" lon="6.459980">
        <ele>296.220000</ele>
        <time>2009-08-18T08:33:16Z</time>
      </trkpt>
      <trkpt lat="50.719198" lon="6.459854">
        <ele>297.180000</ele>
        <time>2009-08-18T08:33:36Z</time>
      </trkpt>
      <trkpt lat="50.719059" lon="6.459698">
        <ele>297.670000</ele>
        <time>2009-08-18T08:33:49Z</time>
      </trkpt>
      <trkpt lat="50.718992" lon="6.459666">
        <ele>297.670000</ele>
        <time>2009-08-18T08:33:54Z</time>
      </trkpt>
      <trkpt lat="50.718833" lon="6.459604">
        <ele>297.180000</ele>
        <time>2009-08-18T08:34:09Z</time>
      </trkpt>
      <trkpt lat="50.718702" lon="6.459688">
        <ele>297.670000</ele>
        <time>2009-08-18T08:34:21Z</time>
      </trkpt>
      <trkpt lat="50.718697" lon="6.459703">
        <ele>297.670000</ele>
        <time>2009-08-18T08:34:22Z</time>
      </trkpt>
      <trkpt lat="50.718630" lon="6.459822">
        <ele>298.150000</ele>
        <time>2009-08-18T08:34:29Z</time>
      </trkpt>
      <trkpt lat="50.718523" lon="6.460047">
        <ele>298.630000</ele>
        <time>2009-08-18T08:34:48Z</time>
      </trkpt>
      <trkpt lat="50.718525" lon="6.460041">
        <ele>297.670000</ele>
        <time>2009-08-18T08:35:49Z</time>
      </trkpt>
      <trkpt lat="50.718469" lon="6.460030">
        <ele>295.740000</ele>
        <time>2009-08-18T08:37:53Z</time>
      </trkpt>
      <trkpt lat="50.718504" lon="6.459920">
        <ele>292.860000</ele>
        <time>2009-08-18T08:41:17Z</time>
      </trkpt>
      <trkpt lat="50.718521" lon="6.459907">
        <ele>292.860000</ele>
        <time>2009-08-18T08:41:18Z</time>
      </trkpt>
      <trkpt lat="50.718671" lon="6.459643">
        <ele>290.940000</ele>
        <time>2009-08-18T08:41:37Z</time>
      </trkpt>
      <trkpt lat="50.718682" lon="6.459515">
        <ele>289.490000</ele>
        <time>2009-08-18T08:41:51Z</time>
      </trkpt>
      <trkpt lat="50.718692" lon="6.459356">
        <ele>288.050000</ele>
        <time>2009-08-18T08:42:09Z</time>
      </trkpt>
      <trkpt lat="50.718715" lon="6.459354">
        <ele>288.530000</ele>
        <time>2009-08-18T08:42:36Z</time>
      </trkpt>
      <trkpt lat="50.718746" lon="6.459461">
        <ele>289.970000</ele>
        <time>2009-08-18T08:42:47Z</time>
      </trkpt>
      <trkpt lat="50.718805" lon="6.459527">
        <ele>290.460000</ele>
        <time>2009-08-18T08:42:57Z</time>
      </trkpt>
      <trkpt lat="50.719052" lon="6.459656">
        <ele>289.010000</ele>
        <time>2009-08-18T08:43:14Z</time>
      </trkpt>
      <trkpt lat="50.719104" lon="6.459688">
        <ele>289.010000</ele>
        <time>2009-08-18T08:43:17Z</time>
      </trkpt>
      <trkpt lat="50.719184" lon="6.459756">
        <ele>289.010000</ele>
        <time>2009-08-18T08:43:23Z</time>
      </trkpt>
      <trkpt lat="50.719364" lon="6.459885">
        <ele>287.570000</ele>
        <time>2009-08-18T08:43:37Z</time>
      </trkpt>
      <trkpt lat="50.719408" lon="6.459888">
        <ele>286.610000</ele>
        <time>2009-08-18T08:43:40Z</time>
      </trkpt>
      <trkpt lat="50.719542" lon="6.459968">
        <ele>282.770000</ele>
        <time>2009-08-18T08:43:51Z</time>
      </trkpt>
      <trkpt lat="50.719679" lon="6.460001">
        <ele>279.400000</ele>
        <time>2009-08-18T08:44:02Z</time>
      </trkpt>
      <trkpt lat="50.719730" lon="6.460066">
        <ele>277.960000</ele>
        <time>2009-08-18T08:44:07Z</time>
      </trkpt>
      <trkpt lat="50.719912" lon="6.460176">
        <ele>274.590000</ele>
        <time>2009-08-18T08:44:20Z</time>
      </trkpt>
      <trkpt lat="50.720005" lon="6.460243">
        <ele>271.710000</ele>
        <time>2009-08-18T08:44:31Z</time>
      </trkpt>
      <trkpt lat="50.720219" lon="6.460260">
        <ele>269.310000</ele>
        <time>2009-08-18T08:44:51Z</time>
      </trkpt>
      <trkpt lat="50.720259" lon="6.460254">
        <ele>268.830000</ele>
        <time>2009-08-18T08:44:56Z</time>
      </trkpt>
      <trkpt lat="50.720349" lon="6.460369">
        <ele>267.860000</ele>
        <time>2009-08-18T08:45:13Z</time>
      </trkpt>
      <trkpt lat="50.720327" lon="6.460367">
        <ele>267.860000</ele>
        <time>2009-08-18T08:45:15Z</time>
      </trkpt>
      <trkpt lat="50.720269" lon="6.460294">
        <ele>266.420000</ele>
        <time>2009-08-18T08:45:30Z</time>
      </trkpt>
      <trkpt lat="50.720179" lon="6.460072">
        <ele>266.900000</ele>
        <time>2009-08-18T08:45:35Z</time>
      </trkpt>
      <trkpt lat="50.720115" lon="6.459788">
        <ele>265.940000</ele>
        <time>2009-08-18T08:45:46Z</time>
      </trkpt>
      <trkpt lat="50.720015" lon="6.459683">
        <ele>264.020000</ele>
        <time>2009-08-18T08:45:57Z</time>
      </trkpt>
      <trkpt lat="50.719791" lon="6.459349">
        <ele>262.580000</ele>
        <time>2009-08-18T08:46:17Z</time>
      </trkpt>
      <trkpt lat="50.719600" lon="6.459112">
        <ele>261.140000</ele>
        <time>2009-08-18T08:46:31Z</time>
      </trkpt>
      <trkpt lat="50.719355" lon="6.458974">
        <ele>258.250000</ele>
        <time>2009-08-18T08:46:50Z</time>
      </trkpt>
      <trkpt lat="50.719091" lon="6.458728">
        <ele>255.370000</ele>
        <time>2009-08-18T08:47:10Z</time>
      </trkpt>
      <trkpt lat="50.718857" lon="6.458645">
        <ele>252.960000</ele>
        <time>2009-08-18T08:47:25Z</time>
      </trkpt>
      <trkpt lat="50.718648" lon="6.458452">
        <ele>251.520000</ele>
        <time>2009-08-18T08:47:41Z</time>
      </trkpt>
      <trkpt lat="50.718451" lon="6.458437">
        <ele>250.080000</ele>
        <time>2009-08-18T08:47:56Z</time>
      </trkpt>
      <trkpt lat="50.718350" lon="6.458424">
        <ele>249.600000</ele>
        <time>2009-08-18T08:48:08Z</time>
      </trkpt>
      <trkpt lat="50.718149" lon="6.458262">
        <ele>249.600000</ele>
        <time>2009-08-18T08:48:19Z</time>
      </trkpt>
      <trkpt lat="50.718065" lon="6.458085">
        <ele>250.080000</ele>
        <time>2009-08-18T08:48:30Z</time>
      </trkpt>
      <trkpt lat="50.718005" lon="6.457960">
        <ele>250.560000</ele>
        <time>2009-08-18T08:48:42Z</time>
      </trkpt>
      <trkpt lat="50.717839" lon="6.457771">
        <ele>251.520000</ele>
        <time>2009-08-18T08:49:03Z</time>
      </trkpt>
      <trkpt lat="50.717614" lon="6.457660">
        <ele>252.480000</ele>
        <time>2009-08-18T08:49:20Z</time>
      </trkpt>
      <trkpt lat="50.717581" lon="6.457592">
        <ele>252.960000</ele>
        <time>2009-08-18T08:49:24Z</time>
      </trkpt>
      <trkpt lat="50.717428" lon="6.457406">
        <ele>254.410000</ele>
        <time>2009-08-18T08:49:37Z</time>
      </trkpt>
      <trkpt lat="50.717412" lon="6.457375">
        <ele>254.410000</ele>
        <time>2009-08-18T08:49:38Z</time>
      </trkpt>
      <trkpt lat="50.717275" lon="6.457257">
        <ele>255.370000</ele>
        <time>2009-08-18T08:49:49Z</time>
      </trkpt>
      <trkpt lat="50.716980" lon="6.457195">
        <ele>257.290000</ele>
        <time>2009-08-18T08:50:07Z</time>
      </trkpt>
      <trkpt lat="50.716943" lon="6.457156">
        <ele>257.770000</ele>
        <time>2009-08-18T08:50:11Z</time>
      </trkpt>
      <trkpt lat="50.716744" lon="6.457093">
        <ele>259.690000</ele>
        <time>2009-08-18T08:50:27Z</time>
      </trkpt>
      <trkpt lat="50.716551" lon="6.457075">
        <ele>260.650000</ele>
        <time>2009-08-18T08:50:40Z</time>
      </trkpt>
      <trkpt lat="50.716494" lon="6.457066">
        <ele>261.140000</ele>
        <time>2009-08-18T08:50:44Z</time>
      </trkpt>
      <trkpt lat="50.716438" lon="6.457087">
        <ele>261.620000</ele>
        <time>2009-08-18T08:50:57Z</time>
      </trkpt>
      <trkpt lat="50.716414" lon="6.457095">
        <ele>261.620000</ele>
        <time>2009-08-18T08:50:58Z</time>
      </trkpt>
      <trkpt lat="50.716170" lon="6.457019">
        <ele>264.020000</ele>
        <time>2009-08-18T08:51:18Z</time>
      </trkpt>
      <trkpt lat="50.715945" lon="6.457047">
        <ele>265.940000</ele>
        <time>2009-08-18T08:51:39Z</time>
      </trkpt>
      <trkpt lat="50.715718" lon="6.457067">
        <ele>268.350000</ele>
        <time>2009-08-18T08:51:58Z</time>
      </trkpt>
      <trkpt lat="50.715638" lon="6.457056">
        <ele>268.830000</ele>
        <time>2009-08-18T08:52:04Z</time>
      </trkpt>
      <trkpt lat="50.715464" lon="6.456984">
        <ele>270.270000</ele>
        <time>2009-08-18T08:52:18Z</time>
      </trkpt>
      <trkpt lat="50.715260" lon="6.456682">
        <ele>271.710000</ele>
        <time>2009-08-18T08:52:30Z</time>
      </trkpt>
      <trkpt lat="50.715248" lon="6.456593">
        <ele>271.710000</ele>
        <time>2009-08-18T08:52:34Z</time>
      </trkpt>
      <trkpt lat="50.715278" lon="6.456401">
        <ele>272.670000</ele>
        <time>2009-08-18T08:52:42Z</time>
      </trkpt>
      <trkpt lat="50.715262" lon="6.456306">
        <ele>273.150000</ele>
        <time>2009-08-18T08:52:46Z</time>
      </trkpt>
      <trkpt lat="50.715232" lon="6.456006">
        <ele>274.110000</ele>
        <time>2009-08-18T08:52:58Z</time>
      </trkpt>
      <trkpt lat="50.715197" lon="6.455919">
        <ele>274.110000</ele>
        <time>2009-08-18T08:53:02Z</time>
      </trkpt>
      <trkpt lat="50.715142" lon="6.455612">
        <ele>275.560000</ele>
        <time>2009-08-18T08:53:18Z</time>
      </trkpt>
      <trkpt lat="50.715186" lon="6.455474">
        <ele>276.040000</ele>
        <time>2009-08-18T08:53:25Z</time>
      </trkpt>
      <trkpt lat="50.715141" lon="6.455416">
        <ele>276.520000</ele>
        <time>2009-08-18T08:53:29Z</time>
      </trkpt>
      <trkpt lat="50.715146" lon="6.455331">
        <ele>277.000000</ele>
        <time>2009-08-18T08:53:33Z</time>
      </trkpt>
      <trkpt lat="50.715106" lon="6.455175">
        <ele>277.480000</ele>
        <time>2009-08-18T08:53:40Z</time>
      </trkpt>
      <trkpt lat="50.715090" lon="6.454978">
        <ele>277.960000</ele>
        <time>2009-08-18T08:53:51Z</time>
      </trkpt>
      <trkpt lat="50.715011" lon="6.454811">
        <ele>278.440000</ele>
        <time>2009-08-18T08:54:00Z</time>
      </trkpt>
      <trkpt lat="50.714954" lon="6.454707">
        <ele>278.920000</ele>
        <time>2009-08-18T08:54:05Z</time>
      </trkpt>
      <trkpt lat="50.714942" lon="6.454661">
        <ele>278.920000</ele>
        <time>2009-08-18T08:54:08Z</time>
      </trkpt>
      <trkpt lat="50.714914" lon="6.454620">
        <ele>278.920000</ele>
        <time>2009-08-18T08:54:10Z</time>
      </trkpt>
      <trkpt lat="50.714899" lon="6.454570">
        <ele>279.400000</ele>
        <time>2009-08-18T08:54:13Z</time>
      </trkpt>
      <trkpt lat="50.714793" lon="6.454384">
        <ele>280.360000</ele>
        <time>2009-08-18T08:54:24Z</time>
      </trkpt>
      <trkpt lat="50.714790" lon="6.454372">
        <ele>280.360000</ele>
        <time>2009-08-18T08:54:25Z</time>
      </trkpt>
      <trkpt lat="50.714635" lon="6.454096">
        <ele>281.320000</ele>
        <time>2009-08-18T08:54:39Z</time>
      </trkpt>
      <trkpt lat="50.714628" lon="6.454078">
        <ele>281.320000</ele>
        <time>2009-08-18T08:54:40Z</time>
      </trkpt>
      <trkpt lat="50.714615" lon="6.454040">
        <ele>281.320000</ele>
        <time>2009-08-18T08:54:42Z</time>
      </trkpt>
      <trkpt lat="50.714625" lon="6.453982">
        <ele>281.800000</ele>
        <time>2009-08-18T08:54:45Z</time>
      </trkpt>
      <trkpt lat="50.714618" lon="6.453812">
        <ele>282.280000</ele>
        <time>2009-08-18T08:54:52Z</time>
      </trkpt>
      <trkpt lat="50.714586" lon="6.453761">
        <ele>282.280000</ele>
        <time>2009-08-18T08:54:56Z</time>
      </trkpt>
      <trkpt lat="50.714494" lon="6.453694">
        <ele>282.770000</ele>
        <time>2009-08-18T08:55:00Z</time>
      </trkpt>
      <trkpt lat="50.714507" lon="6.453523">
        <ele>283.250000</ele>
        <time>2009-08-18T08:55:07Z</time>
      </trkpt>
      <trkpt lat="50.714384" lon="6.453217">
        <ele>283.730000</ele>
        <time>2009-08-18T08:55:22Z</time>
      </trkpt>
      <trkpt lat="50.714321" lon="6.452958">
        <ele>284.210000</ele>
        <time>2009-08-18T08:55:35Z</time>
      </trkpt>
      <trkpt lat="50.714303" lon="6.452832">
        <ele>284.210000</ele>
        <time>2009-08-18T08:55:40Z</time>
      </trkpt>
      <trkpt lat="50.714310" lon="6.452756">
        <ele>284.210000</ele>
        <time>2009-08-18T08:55:55Z</time>
      </trkpt>
      <trkpt lat="50.714324" lon="6.452709">
        <ele>283.250000</ele>
        <time>2009-08-18T08:56:40Z</time>
      </trkpt>
      <trkpt lat="50.714311" lon="6.452703">
        <ele>283.730000</ele>
        <time>2009-08-18T08:57:15Z</time>
      </trkpt>
      <trkpt lat="50.714263" lon="6.452635">
        <ele>283.730000</ele>
        <time>2009-08-18T08:57:19Z</time>
      </trkpt>
      <trkpt lat="50.714224" lon="6.452473">
        <ele>284.210000</ele>
        <time>2009-08-18T08:57:26Z</time>
      </trkpt>
      <trkpt lat="50.714234" lon="6.452151">
        <ele>284.210000</ele>
        <time>2009-08-18T08:57:38Z</time>
      </trkpt>
      <trkpt lat="50.714167" lon="6.451864">
        <ele>284.210000</ele>
        <time>2009-08-18T08:57:52Z</time>
      </trkpt>
      <trkpt lat="50.714167" lon="6.451850">
        <ele>284.210000</ele>
        <time>2009-08-18T08:57:53Z</time>
      </trkpt>
      <trkpt lat="50.714038" lon="6.451438">
        <ele>284.690000</ele>
        <time>2009-08-18T08:58:12Z</time>
      </trkpt>
      <trkpt lat="50.714025" lon="6.451373">
        <ele>284.690000</ele>
        <time>2009-08-18T08:58:16Z</time>
      </trkpt>
      <trkpt lat="50.713984" lon="6.451047">
        <ele>284.690000</ele>
        <time>2009-08-18T08:58:30Z</time>
      </trkpt>
      <trkpt lat="50.713979" lon="6.451018">
        <ele>284.690000</ele>
        <time>2009-08-18T08:58:32Z</time>
      </trkpt>
      <trkpt lat="50.713971" lon="6.450911">
        <ele>284.690000</ele>
        <time>2009-08-18T08:58:37Z</time>
      </trkpt>
      <trkpt lat="50.714015" lon="6.450896">
        <ele>284.210000</ele>
        <time>2009-08-18T08:58:50Z</time>
      </trkpt>
      <trkpt lat="50.713985" lon="6.450866">
        <ele>284.690000</ele>
        <time>2009-08-18T08:59:06Z</time>
      </trkpt>
      <trkpt lat="50.713878" lon="6.450663">
        <ele>285.170000</ele>
        <time>2009-08-18T08:59:21Z</time>
      </trkpt>
      <trkpt lat="50.713839" lon="6.450578">
        <ele>285.170000</ele>
        <time>2009-08-18T08:59:47Z</time>
      </trkpt>
      <trkpt lat="50.713811" lon="6.450545">
        <ele>285.170000</ele>
        <time>2009-08-18T08:59:49Z</time>
      </trkpt>
      <trkpt lat="50.713773" lon="6.450199">
        <ele>285.170000</ele>
        <time>2009-08-18T09:00:04Z</time>
      </trkpt>
      <trkpt lat="50.713776" lon="6.450159">
        <ele>285.170000</ele>
        <time>2009-08-18T09:00:05Z</time>
      </trkpt>
      <trkpt lat="50.713723" lon="6.449987">
        <ele>284.210000</ele>
        <time>2009-08-18T09:00:21Z</time>
      </trkpt>
      <trkpt lat="50.713651" lon="6.449916">
        <ele>284.690000</ele>
        <time>2009-08-18T09:00:31Z</time>
      </trkpt>
      <trkpt lat="50.713601" lon="6.449904">
        <ele>284.210000</ele>
        <time>2009-08-18T09:00:35Z</time>
      </trkpt>
      <trkpt lat="50.713379" lon="6.449726">
        <ele>284.210000</ele>
        <time>2009-08-18T09:00:52Z</time>
      </trkpt>
      <trkpt lat="50.713202" lon="6.449532">
        <ele>283.730000</ele>
        <time>2009-08-18T09:01:09Z</time>
      </trkpt>
      <trkpt lat="50.713138" lon="6.449397">
        <ele>283.730000</ele>
        <time>2009-08-18T09:01:23Z</time>
      </trkpt>
      <trkpt lat="50.713140" lon="6.449425">
        <ele>283.250000</ele>
        <time>2009-08-18T09:01:36Z</time>
      </trkpt>
      <trkpt lat="50.713088" lon="6.449471">
        <ele>283.250000</ele>
        <time>2009-08-18T09:01:40Z</time>
      </trkpt>
      <trkpt lat="50.712883" lon="6.449422">
        <ele>282.770000</ele>
        <time>2009-08-18T09:01:54Z</time>
      </trkpt>
      <trkpt lat="50.712667" lon="6.449536">
        <ele>282.770000</ele>
        <time>2009-08-18T09:02:08Z</time>
      </trkpt>
      <trkpt lat="50.712577" lon="6.449812">
        <ele>281.800000</ele>
        <time>2009-08-18T09:02:22Z</time>
      </trkpt>
      <trkpt lat="50.712485" lon="6.450031">
        <ele>281.320000</ele>
        <time>2009-08-18T09:02:33Z</time>
      </trkpt>
      <trkpt lat="50.712434" lon="6.450173">
        <ele>281.320000</ele>
        <time>2009-08-18T09:02:43Z</time>
      </trkpt>
      <trkpt lat="50.712378" lon="6.450214">
        <ele>280.840000</ele>
        <time>2009-08-18T09:02:48Z</time>
      </trkpt>
      <trkpt lat="50.712182" lon="6.450623">
        <ele>280.360000</ele>
        <time>2009-08-18T09:03:07Z</time>
      </trkpt>
      <trkpt lat="50.712155" lon="6.450652">
        <ele>280.840000</ele>
        <time>2009-08-18T09:03:09Z</time>
      </trkpt>
      <trkpt lat="50.712103" lon="6.450853">
        <ele>280.360000</ele>
        <time>2009-08-18T09:03:19Z</time>
      </trkpt>
      <trkpt lat="50.712081" lon="6.450906">
        <ele>280.360000</ele>
        <time>2009-08-18T09:03:22Z</time>
      </trkpt>
      <trkpt lat="50.712036" lon="6.450990">
        <ele>280.360000</ele>
        <time>2009-08-18T09:03:26Z</time>
      </trkpt>
      <trkpt lat="50.711900" lon="6.451167">
        <ele>280.360000</ele>
        <time>2009-08-18T09:03:38Z</time>
      </trkpt>
      <trkpt lat="50.711865" lon="6.451211">
        <ele>279.880000</ele>
        <time>2009-08-18T09:03:41Z</time>
      </trkpt>
      <trkpt lat="50.711686" lon="6.451458">
        <ele>279.880000</ele>
        <time>2009-08-18T09:03:56Z</time>
      </trkpt>
      <trkpt lat="50.711507" lon="6.451800">
        <ele>278.920000</ele>
        <time>2009-08-18T09:04:14Z</time>
      </trkpt>
      <trkpt lat="50.711485" lon="6.451822">
        <ele>275.560000</ele>
        <time>2009-08-18T09:04:25Z</time>
      </trkpt>
      <trkpt lat="50.711463" lon="6.451722">
        <ele>274.590000</ele>
        <time>2009-08-18T09:04:28Z</time>
      </trkpt>
      <trkpt lat="50.711339" lon="6.451580">
        <ele>272.670000</ele>
        <time>2009-08-18T09:04:33Z</time>
      </trkpt>
      <trkpt lat="50.711322" lon="6.451498">
        <ele>271.710000</ele>
        <time>2009-08-18T09:04:36Z</time>
      </trkpt>
      <trkpt lat="50.711326" lon="6.451388">
        <ele>270.270000</ele>
        <time>2009-08-18T09:04:40Z</time>
      </trkpt>
      <trkpt lat="50.711368" lon="6.451073">
        <ele>266.420000</ele>
        <time>2009-08-18T09:04:52Z</time>
      </trkpt>
      <trkpt lat="50.711417" lon="6.450997">
        <ele>264.980000</ele>
        <time>2009-08-18T09:04:56Z</time>
      </trkpt>
      <trkpt lat="50.711497" lon="6.450882">
        <ele>263.060000</ele>
        <time>2009-08-18T09:05:01Z</time>
      </trkpt>
      <trkpt lat="50.711555" lon="6.450735">
        <ele>260.650000</ele>
        <time>2009-08-18T09:05:09Z</time>
      </trkpt>
      <trkpt lat="50.711611" lon="6.450529">
        <ele>257.290000</ele>
        <time>2009-08-18T09:05:20Z</time>
      </trkpt>
      <trkpt lat="50.711653" lon="6.450441">
        <ele>254.890000</ele>
        <time>2009-08-18T09:05:26Z</time>
      </trkpt>
      <trkpt lat="50.711623" lon="6.450313">
        <ele>252.960000</ele>
        <time>2009-08-18T09:05:31Z</time>
      </trkpt>
      <trkpt lat="50.711603" lon="6.450118">
        <ele>251.040000</ele>
        <time>2009-08-18T09:05:38Z</time>
      </trkpt>
      <trkpt lat="50.711625" lon="6.449920">
        <ele>247.680000</ele>
        <time>2009-08-18T09:05:50Z</time>
      </trkpt>
      <trkpt lat="50.711713" lon="6.449713">
        <ele>244.310000</ele>
        <time>2009-08-18T09:06:01Z</time>
      </trkpt>
      <trkpt lat="50.711704" lon="6.449573">
        <ele>242.870000</ele>
        <time>2009-08-18T09:06:06Z</time>
      </trkpt>
      <trkpt lat="50.711713" lon="6.449456">
        <ele>241.430000</ele>
        <time>2009-08-18T09:06:11Z</time>
      </trkpt>
      <trkpt lat="50.711724" lon="6.449427">
        <ele>240.950000</ele>
        <time>2009-08-18T09:06:13Z</time>
      </trkpt>
      <trkpt lat="50.711810" lon="6.449169">
        <ele>237.100000</ele>
        <time>2009-08-18T09:06:26Z</time>
      </trkpt>
      <trkpt lat="50.711848" lon="6.448959">
        <ele>233.740000</ele>
        <time>2009-08-18T09:06:38Z</time>
      </trkpt>
      <trkpt lat="50.711910" lon="6.448631">
        <ele>230.850000</ele>
        <time>2009-08-18T09:06:50Z</time>
      </trkpt>
      <trkpt lat="50.711942" lon="6.448396">
        <ele>227.970000</ele>
        <time>2009-08-18T09:07:01Z</time>
      </trkpt>
      <trkpt lat="50.711972" lon="6.448259">
        <ele>226.530000</ele>
        <time>2009-08-18T09:07:07Z</time>
      </trkpt>
      <trkpt lat="50.711970" lon="6.448087">
        <ele>224.120000</ele>
        <time>2009-08-18T09:07:15Z</time>
      </trkpt>
      <trkpt lat="50.712106" lon="6.447972">
        <ele>222.680000</ele>
        <time>2009-08-18T09:07:19Z</time>
      </trkpt>
      <trkpt lat="50.712114" lon="6.447852">
        <ele>221.720000</ele>
        <time>2009-08-18T09:07:23Z</time>
      </trkpt>
      <trkpt lat="50.712137" lon="6.447817">
        <ele>221.240000</ele>
        <time>2009-08-18T09:07:25Z</time>
      </trkpt>
      <trkpt lat="50.712212" lon="6.447617">
        <ele>217.880000</ele>
        <time>2009-08-18T09:07:36Z</time>
      </trkpt>
      <trkpt lat="50.712272" lon="6.447389">
        <ele>214.510000</ele>
        <time>2009-08-18T09:07:48Z</time>
      </trkpt>
      <trkpt lat="50.712281" lon="6.447360">
        <ele>214.030000</ele>
        <time>2009-08-18T09:07:49Z</time>
      </trkpt>
      <trkpt lat="50.712366" lon="6.447163">
        <ele>211.630000</ele>
        <time>2009-08-18T09:08:00Z</time>
      </trkpt>
      <trkpt lat="50.712434" lon="6.447007">
        <ele>209.700000</ele>
        <time>2009-08-18T09:08:07Z</time>
      </trkpt>
      <trkpt lat="50.712530" lon="6.446849">
        <ele>206.340000</ele>
        <time>2009-08-18T09:08:19Z</time>
      </trkpt>
      <trkpt lat="50.712592" lon="6.446745">
        <ele>204.420000</ele>
        <time>2009-08-18T09:08:25Z</time>
      </trkpt>
      <trkpt lat="50.712756" lon="6.446580">
        <ele>201.530000</ele>
        <time>2009-08-18T09:08:38Z</time>
      </trkpt>
      <trkpt lat="50.712801" lon="6.446574">
        <ele>200.570000</ele>
        <time>2009-08-18T09:08:41Z</time>
      </trkpt>
      <trkpt lat="50.712812" lon="6.446521">
        <ele>200.090000</ele>
        <time>2009-08-18T09:08:45Z</time>
      </trkpt>
      <trkpt lat="50.712889" lon="6.446438">
        <ele>197.210000</ele>
        <time>2009-08-18T09:08:53Z</time>
      </trkpt>
      <trkpt lat="50.712914" lon="6.446352">
        <ele>194.320000</ele>
        <time>2009-08-18T09:08:59Z</time>
      </trkpt>
      <trkpt lat="50.712921" lon="6.446398">
        <ele>193.360000</ele>
        <time>2009-08-18T09:09:03Z</time>
      </trkpt>
      <trkpt lat="50.713032" lon="6.446202">
        <ele>189.520000</ele>
        <time>2009-08-18T09:09:16Z</time>
      </trkpt>
      <trkpt lat="50.713082" lon="6.446049">
        <ele>186.150000</ele>
        <time>2009-08-18T09:09:25Z</time>
      </trkpt>
      <trkpt lat="50.713160" lon="6.445885">
        <ele>183.750000</ele>
        <time>2009-08-18T09:09:43Z</time>
      </trkpt>
      <trkpt lat="50.713194" lon="6.445949">
        <ele>183.750000</ele>
        <time>2009-08-18T09:09:49Z</time>
      </trkpt>
      <trkpt lat="50.713398" lon="6.446305">
        <ele>183.270000</ele>
        <time>2009-08-18T09:10:05Z</time>
      </trkpt>
      <trkpt lat="50.713562" lon="6.446449">
        <ele>183.270000</ele>
        <time>2009-08-18T09:10:16Z</time>
      </trkpt>
      <trkpt lat="50.713622" lon="6.446548">
        <ele>183.270000</ele>
        <time>2009-08-18T09:10:23Z</time>
      </trkpt>
      <trkpt lat="50.713757" lon="6.446726">
        <ele>182.790000</ele>
        <time>2009-08-18T09:10:33Z</time>
      </trkpt>
      <trkpt lat="50.713890" lon="6.446917">
        <ele>183.270000</ele>
        <time>2009-08-18T09:10:46Z</time>
      </trkpt>
      <trkpt lat="50.714001" lon="6.447082">
        <ele>182.790000</ele>
        <time>2009-08-18T09:10:57Z</time>
      </trkpt>
      <trkpt lat="50.714046" lon="6.447166">
        <ele>182.790000</ele>
        <time>2009-08-18T09:11:01Z</time>
      </trkpt>
      <trkpt lat="50.714153" lon="6.447377">
        <ele>182.310000</ele>
        <time>2009-08-18T09:11:14Z</time>
      </trkpt>
      <trkpt lat="50.714207" lon="6.447464">
        <ele>182.310000</ele>
        <time>2009-08-18T09:11:19Z</time>
      </trkpt>
      <trkpt lat="50.714293" lon="6.447582">
        <ele>181.830000</ele>
        <time>2009-08-18T09:11:27Z</time>
      </trkpt>
      <trkpt lat="50.714335" lon="6.447591">
        <ele>181.830000</ele>
        <time>2009-08-18T09:11:30Z</time>
      </trkpt>
      <trkpt lat="50.714502" lon="6.447686">
        <ele>181.830000</ele>
        <time>2009-08-18T09:11:40Z</time>
      </trkpt>
      <trkpt lat="50.714513" lon="6.447705">
        <ele>181.350000</ele>
        <time>2009-08-18T09:11:42Z</time>
      </trkpt>
      <trkpt lat="50.714556" lon="6.447685">
        <ele>181.350000</ele>
        <time>2009-08-18T09:11:47Z</time>
      </trkpt>
      <trkpt lat="50.714771" lon="6.447527">
        <ele>181.830000</ele>
        <time>2009-08-18T09:12:01Z</time>
      </trkpt>
      <trkpt lat="50.714935" lon="6.447386">
        <ele>181.350000</ele>
        <time>2009-08-18T09:12:15Z</time>
      </trkpt>
      <trkpt lat="50.715112" lon="6.447275">
        <ele>181.830000</ele>
        <time>2009-08-18T09:12:28Z</time>
      </trkpt>
      <trkpt lat="50.715295" lon="6.447117">
        <ele>181.830000</ele>
        <time>2009-08-18T09:12:42Z</time>
      </trkpt>
      <trkpt lat="50.715457" lon="6.446954">
        <ele>181.350000</ele>
        <time>2009-08-18T09:12:56Z</time>
      </trkpt>
      <trkpt lat="50.715590" lon="6.446826">
        <ele>181.350000</ele>
        <time>2009-08-18T09:13:07Z</time>
      </trkpt>
      <trkpt lat="50.715751" lon="6.446666">
        <ele>181.830000</ele>
        <time>2009-08-18T09:13:21Z</time>
      </trkpt>
      <trkpt lat="50.715764" lon="6.446660">
        <ele>181.830000</ele>
        <time>2009-08-18T09:13:22Z</time>
      </trkpt>
      <trkpt lat="50.715849" lon="6.446596">
        <ele>182.310000</ele>
        <time>2009-08-18T09:13:28Z</time>
      </trkpt>
      <trkpt lat="50.715899" lon="6.446541">
        <ele>182.310000</ele>
        <time>2009-08-18T09:13:31Z</time>
      </trkpt>
      <trkpt lat="50.716032" lon="6.446398">
        <ele>182.310000</ele>
        <time>2009-08-18T09:13:47Z</time>
      </trkpt>
      <trkpt lat="50.716059" lon="6.446378">
        <ele>181.830000</ele>
        <time>2009-08-18T09:13:51Z</time>
      </trkpt>
      <trkpt lat="50.716184" lon="6.446292">
        <ele>181.350000</ele>
        <time>2009-08-18T09:13:59Z</time>
      </trkpt>
      <trkpt lat="50.716327" lon="6.446066">
        <ele>180.870000</ele>
        <time>2009-08-18T09:14:15Z</time>
      </trkpt>
      <trkpt lat="50.716336" lon="6.446057">
        <ele>180.870000</ele>
        <time>2009-08-18T09:14:16Z</time>
      </trkpt>
      <trkpt lat="50.716402" lon="6.446026">
        <ele>180.870000</ele>
        <time>2009-08-18T09:14:28Z</time>
      </trkpt>
      <trkpt lat="50.716416" lon="6.446024">
        <ele>180.870000</ele>
        <time>2009-08-18T09:14:56Z</time>
      </trkpt>
      <trkpt lat="50.716454" lon="6.445977">
        <ele>180.380000</ele>
        <time>2009-08-18T09:16:18Z</time>
      </trkpt>
      <trkpt lat="50.716394" lon="6.445826">
        <ele>179.900000</ele>
        <time>2009-08-18T09:19:08Z</time>
      </trkpt>
      <trkpt lat="50.716552" lon="6.446025">
        <ele>179.420000</ele>
        <time>2009-08-18T09:34:07Z</time>
      </trkpt>
      <trkpt lat="50.716588" lon="6.446018">
        <ele>178.460000</ele>
        <time>2009-08-18T09:34:35Z</time>
      </trkpt>
      <trkpt lat="50.716544" lon="6.446072">
        <ele>178.460000</ele>
        <time>2009-08-18T09:35:22Z</time>
      </trkpt>
      <trkpt lat="50.716557" lon="6.446137">
        <ele>178.460000</ele>
        <time>2009-08-18T09:35:55Z</time>
      </trkpt>
      <trkpt lat="50.716462" lon="6.446039">
        <ele>181.350000</ele>
        <time>2009-08-18T09:36:18Z</time>
      </trkpt>
      <trkpt lat="50.716308" lon="6.446173">
        <ele>181.350000</ele>
        <time>2009-08-18T09:36:30Z</time>
      </trkpt>
      <trkpt lat="50.716263" lon="6.446214">
        <ele>181.350000</ele>
        <time>2009-08-18T09:36:34Z</time>
      </trkpt>
      <trkpt lat="50.716201" lon="6.446276">
        <ele>181.350000</ele>
        <time>2009-08-18T09:36:40Z</time>
      </trkpt>
      <trkpt lat="50.716028" lon="6.446411">
        <ele>181.830000</ele>
        <time>2009-08-18T09:36:53Z</time>
      </trkpt>
      <trkpt lat="50.715859" lon="6.446579">
        <ele>182.310000</ele>
        <time>2009-08-18T09:37:07Z</time>
      </trkpt>
      <trkpt lat="50.715703" lon="6.446681">
        <ele>181.830000</ele>
        <time>2009-08-18T09:37:19Z</time>
      </trkpt>
      <trkpt lat="50.715530" lon="6.446841">
        <ele>181.830000</ele>
        <time>2009-08-18T09:37:33Z</time>
      </trkpt>
      <trkpt lat="50.715344" lon="6.446974">
        <ele>181.350000</ele>
        <time>2009-08-18T09:37:46Z</time>
      </trkpt>
      <trkpt lat="50.715174" lon="6.447131">
        <ele>180.870000</ele>
        <time>2009-08-18T09:38:00Z</time>
      </trkpt>
      <trkpt lat="50.714986" lon="6.447268">
        <ele>180.870000</ele>
        <time>2009-08-18T09:38:15Z</time>
      </trkpt>
      <trkpt lat="50.714826" lon="6.447377">
        <ele>180.380000</ele>
        <time>2009-08-18T09:38:28Z</time>
      </trkpt>
      <trkpt lat="50.714791" lon="6.447408">
        <ele>179.900000</ele>
        <time>2009-08-18T09:38:49Z</time>
      </trkpt>
      <trkpt lat="50.714720" lon="6.447510">
        <ele>179.420000</ele>
        <time>2009-08-18T09:39:09Z</time>
      </trkpt>
      <trkpt lat="50.714526" lon="6.447723">
        <ele>178.940000</ele>
        <time>2009-08-18T09:39:23Z</time>
      </trkpt>
      <trkpt lat="50.714472" lon="6.447797">
        <ele>178.940000</ele>
        <time>2009-08-18T09:39:28Z</time>
      </trkpt>
      <trkpt lat="50.714436" lon="6.447809">
        <ele>178.940000</ele>
        <time>2009-08-18T09:39:31Z</time>
      </trkpt>
      <trkpt lat="50.714340" lon="6.447730">
        <ele>178.940000</ele>
        <time>2009-08-18T09:39:45Z</time>
      </trkpt>
      <trkpt lat="50.714104" lon="6.447549">
        <ele>179.420000</ele>
        <time>2009-08-18T09:40:02Z</time>
      </trkpt>
      <trkpt lat="50.714088" lon="6.447450">
        <ele>179.420000</ele>
        <time>2009-08-18T09:40:09Z</time>
      </trkpt>
      <trkpt lat="50.714030" lon="6.447347">
        <ele>179.420000</ele>
        <time>2009-08-18T09:40:14Z</time>
      </trkpt>
      <trkpt lat="50.714001" lon="6.447265">
        <ele>179.420000</ele>
        <time>2009-08-18T09:40:19Z</time>
      </trkpt>
      <trkpt lat="50.713965" lon="6.447233">
        <ele>179.420000</ele>
        <time>2009-08-18T09:40:21Z</time>
      </trkpt>
      <trkpt lat="50.713857" lon="6.447133">
        <ele>179.420000</ele>
        <time>2009-08-18T09:40:31Z</time>
      </trkpt>
      <trkpt lat="50.713753" lon="6.446856">
        <ele>178.940000</ele>
        <time>2009-08-18T09:40:47Z</time>
      </trkpt>
      <trkpt lat="50.713625" lon="6.446680">
        <ele>178.940000</ele>
        <time>2009-08-18T09:40:59Z</time>
      </trkpt>
      <trkpt lat="50.713439" lon="6.446532">
        <ele>178.940000</ele>
        <time>2009-08-18T09:41:13Z</time>
      </trkpt>
      <trkpt lat="50.713291" lon="6.446301">
        <ele>178.460000</ele>
        <time>2009-08-18T09:41:31Z</time>
      </trkpt>
      <trkpt lat="50.713041" lon="6.446124">
        <ele>179.900000</ele>
        <time>2009-08-18T09:41:55Z</time>
      </trkpt>
      <trkpt lat="50.712981" lon="6.446242">
        <ele>182.790000</ele>
        <time>2009-08-18T09:42:08Z</time>
      </trkpt>
      <trkpt lat="50.712929" lon="6.446334">
        <ele>185.670000</ele>
        <time>2009-08-18T09:42:21Z</time>
      </trkpt>
      <trkpt lat="50.712773" lon="6.446499">
        <ele>188.560000</ele>
        <time>2009-08-18T09:42:34Z</time>
      </trkpt>
      <trkpt lat="50.712678" lon="6.446630">
        <ele>191.440000</ele>
        <time>2009-08-18T09:42:47Z</time>
      </trkpt>
      <trkpt lat="50.712481" lon="6.446797">
        <ele>194.320000</ele>
        <time>2009-08-18T09:43:02Z</time>
      </trkpt>
      <trkpt lat="50.712300" lon="6.446969">
        <ele>197.690000</ele>
        <time>2009-08-18T09:43:22Z</time>
      </trkpt>
      <trkpt lat="50.712200" lon="6.447085">
        <ele>200.570000</ele>
        <time>2009-08-18T09:43:40Z</time>
      </trkpt>
      <trkpt lat="50.712117" lon="6.447281">
        <ele>203.460000</ele>
        <time>2009-08-18T09:43:55Z</time>
      </trkpt>
      <trkpt lat="50.712052" lon="6.447477">
        <ele>206.820000</ele>
        <time>2009-08-18T09:44:11Z</time>
      </trkpt>
      <trkpt lat="50.712001" lon="6.447604">
        <ele>208.740000</ele>
        <time>2009-08-18T09:44:24Z</time>
      </trkpt>
      <trkpt lat="50.711887" lon="6.447812">
        <ele>212.110000</ele>
        <time>2009-08-18T09:44:41Z</time>
      </trkpt>
      <trkpt lat="50.711838" lon="6.447888">
        <ele>214.990000</ele>
        <time>2009-08-18T09:45:01Z</time>
      </trkpt>
      <trkpt lat="50.711853" lon="6.448014">
        <ele>217.880000</ele>
        <time>2009-08-18T09:45:17Z</time>
      </trkpt>
      <trkpt lat="50.711832" lon="6.448283">
        <ele>220.760000</ele>
        <time>2009-08-18T09:45:32Z</time>
      </trkpt>
      <trkpt lat="50.711872" lon="6.448511">
        <ele>224.120000</ele>
        <time>2009-08-18T09:45:49Z</time>
      </trkpt>
      <trkpt lat="50.711852" lon="6.448834">
        <ele>227.010000</ele>
        <time>2009-08-18T09:46:06Z</time>
      </trkpt>
      <trkpt lat="50.711761" lon="6.448918">
        <ele>229.410000</ele>
        <time>2009-08-18T09:46:20Z</time>
      </trkpt>
      <trkpt lat="50.711681" lon="6.448968">
        <ele>232.780000</ele>
        <time>2009-08-18T09:46:44Z</time>
      </trkpt>
      <trkpt lat="50.711749" lon="6.449107">
        <ele>233.740000</ele>
        <time>2009-08-18T09:46:48Z</time>
      </trkpt>
      <trkpt lat="50.711767" lon="6.449400">
        <ele>237.100000</ele>
        <time>2009-08-18T09:47:05Z</time>
      </trkpt>
      <trkpt lat="50.711694" lon="6.449653">
        <ele>239.510000</ele>
        <time>2009-08-18T09:47:19Z</time>
      </trkpt>
      <trkpt lat="50.711686" lon="6.449906">
        <ele>242.390000</ele>
        <time>2009-08-18T09:47:37Z</time>
      </trkpt>
      <trkpt lat="50.711631" lon="6.450021">
        <ele>245.270000</ele>
        <time>2009-08-18T09:47:48Z</time>
      </trkpt>
      <trkpt lat="50.711556" lon="6.450210">
        <ele>247.200000</ele>
        <time>2009-08-18T09:48:08Z</time>
      </trkpt>
      <trkpt lat="50.711493" lon="6.450407">
        <ele>250.080000</ele>
        <time>2009-08-18T09:48:25Z</time>
      </trkpt>
      <trkpt lat="50.711483" lon="6.450426">
        <ele>253.440000</ele>
        <time>2009-08-18T09:48:49Z</time>
      </trkpt>
      <trkpt lat="50.711413" lon="6.450625">
        <ele>256.330000</ele>
        <time>2009-08-18T09:49:04Z</time>
      </trkpt>
      <trkpt lat="50.711321" lon="6.451067">
        <ele>259.690000</ele>
        <time>2009-08-18T09:49:21Z</time>
      </trkpt>
      <trkpt lat="50.711247" lon="6.451238">
        <ele>262.100000</ele>
        <time>2009-08-18T09:49:41Z</time>
      </trkpt>
      <trkpt lat="50.711232" lon="6.451459">
        <ele>264.980000</ele>
        <time>2009-08-18T09:49:55Z</time>
      </trkpt>
      <trkpt lat="50.711235" lon="6.451629">
        <ele>268.350000</ele>
        <time>2009-08-18T09:50:11Z</time>
      </trkpt>
      <trkpt lat="50.711120" lon="6.451695">
        <ele>269.790000</ele>
        <time>2009-08-18T09:50:42Z</time>
      </trkpt>
      <trkpt lat="50.711169" lon="6.451708">
        <ele>272.670000</ele>
        <time>2009-08-18T09:50:56Z</time>
      </trkpt>
      <trkpt lat="50.711165" lon="6.451871">
        <ele>274.110000</ele>
        <time>2009-08-18T09:51:16Z</time>
      </trkpt>
      <trkpt lat="50.710985" lon="6.451921">
        <ele>273.630000</ele>
        <time>2009-08-18T09:51:37Z</time>
      </trkpt>
      <trkpt lat="50.710972" lon="6.451875">
        <ele>273.630000</ele>
        <time>2009-08-18T09:51:40Z</time>
      </trkpt>
      <trkpt lat="50.710935" lon="6.451637">
        <ele>273.630000</ele>
        <time>2009-08-18T09:51:50Z</time>
      </trkpt>
      <trkpt lat="50.710889" lon="6.451432">
        <ele>273.630000</ele>
        <time>2009-08-18T09:51:59Z</time>
      </trkpt>
      <trkpt lat="50.710916" lon="6.451325">
        <ele>273.150000</ele>
        <time>2009-08-18T09:52:05Z</time>
      </trkpt>
      <trkpt lat="50.710923" lon="6.451232">
        <ele>273.150000</ele>
        <time>2009-08-18T09:52:10Z</time>
      </trkpt>
      <trkpt lat="50.710925" lon="6.451170">
        <ele>272.670000</ele>
        <time>2009-08-18T09:52:12Z</time>
      </trkpt>
      <trkpt lat="50.710907" lon="6.450964">
        <ele>272.670000</ele>
        <time>2009-08-18T09:52:21Z</time>
      </trkpt>
      <trkpt lat="50.710912" lon="6.450607">
        <ele>272.190000</ele>
        <time>2009-08-18T09:52:38Z</time>
      </trkpt>
      <trkpt lat="50.710931" lon="6.450529">
        <ele>271.710000</ele>
        <time>2009-08-18T09:52:54Z</time>
      </trkpt>
      <trkpt lat="50.710912" lon="6.450315">
        <ele>271.230000</ele>
        <time>2009-08-18T09:53:03Z</time>
      </trkpt>
      <trkpt lat="50.710909" lon="6.450030">
        <ele>270.750000</ele>
        <time>2009-08-18T09:53:16Z</time>
      </trkpt>
      <trkpt lat="50.710889" lon="6.449896">
        <ele>270.750000</ele>
        <time>2009-08-18T09:53:22Z</time>
      </trkpt>
      <trkpt lat="50.710866" lon="6.449801">
        <ele>270.270000</ele>
        <time>2009-08-18T09:53:27Z</time>
      </trkpt>
      <trkpt lat="50.710890" lon="6.449425">
        <ele>270.270000</ele>
        <time>2009-08-18T09:53:43Z</time>
      </trkpt>
      <trkpt lat="50.710873" lon="6.449282">
        <ele>269.790000</ele>
        <time>2009-08-18T09:53:50Z</time>
      </trkpt>
      <trkpt lat="50.710866" lon="6.449056">
        <ele>269.310000</ele>
        <time>2009-08-18T09:53:59Z</time>
      </trkpt>
      <trkpt lat="50.710844" lon="6.448967">
        <ele>269.310000</ele>
        <time>2009-08-18T09:54:03Z</time>
      </trkpt>
      <trkpt lat="50.710871" lon="6.448736">
        <ele>268.830000</ele>
        <time>2009-08-18T09:54:17Z</time>
      </trkpt>
      <trkpt lat="50.710858" lon="6.448430">
        <ele>268.350000</ele>
        <time>2009-08-18T09:54:30Z</time>
      </trkpt>
      <trkpt lat="50.710888" lon="6.448233">
        <ele>268.350000</ele>
        <time>2009-08-18T09:54:45Z</time>
      </trkpt>
      <trkpt lat="50.710881" lon="6.448030">
        <ele>267.860000</ele>
        <time>2009-08-18T09:55:01Z</time>
      </trkpt>
      <trkpt lat="50.710904" lon="6.447996">
        <ele>267.380000</ele>
        <time>2009-08-18T09:55:03Z</time>
      </trkpt>
      <trkpt lat="50.710918" lon="6.447785">
        <ele>267.380000</ele>
        <time>2009-08-18T09:55:13Z</time>
      </trkpt>
      <trkpt lat="50.710932" lon="6.447673">
        <ele>267.380000</ele>
        <time>2009-08-18T09:55:19Z</time>
      </trkpt>
      <trkpt lat="50.710897" lon="6.447521">
        <ele>267.380000</ele>
        <time>2009-08-18T09:55:36Z</time>
      </trkpt>
      <trkpt lat="50.710975" lon="6.447349">
        <ele>268.350000</ele>
        <time>2009-08-18T09:55:53Z</time>
      </trkpt>
      <trkpt lat="50.711002" lon="6.447172">
        <ele>268.830000</ele>
        <time>2009-08-18T09:56:20Z</time>
      </trkpt>
      <trkpt lat="50.710987" lon="6.447220">
        <ele>268.830000</ele>
        <time>2009-08-18T09:56:54Z</time>
      </trkpt>
      <trkpt lat="50.710917" lon="6.447353">
        <ele>266.900000</ele>
        <time>2009-08-18T09:57:12Z</time>
      </trkpt>
      <trkpt lat="50.710850" lon="6.447402">
        <ele>266.420000</ele>
        <time>2009-08-18T09:57:25Z</time>
      </trkpt>
      <trkpt lat="50.710819" lon="6.447421">
        <ele>266.420000</ele>
        <time>2009-08-18T09:57:52Z</time>
      </trkpt>
      <trkpt lat="50.710852" lon="6.447409">
        <ele>265.940000</ele>
        <time>2009-08-18T09:58:01Z</time>
      </trkpt>
      <trkpt lat="50.710907" lon="6.447517">
        <ele>265.940000</ele>
        <time>2009-08-18T09:58:09Z</time>
      </trkpt>
      <trkpt lat="50.710879" lon="6.447766">
        <ele>265.940000</ele>
        <time>2009-08-18T09:58:21Z</time>
      </trkpt>
      <trkpt lat="50.710868" lon="6.447803">
        <ele>266.420000</ele>
        <time>2009-08-18T09:58:23Z</time>
      </trkpt>
      <trkpt lat="50.710821" lon="6.447875">
        <ele>266.900000</ele>
        <time>2009-08-18T09:58:27Z</time>
      </trkpt>
      <trkpt lat="50.710692" lon="6.447867">
        <ele>265.940000</ele>
        <time>2009-08-18T09:58:38Z</time>
      </trkpt>
      <trkpt lat="50.710544" lon="6.448065">
        <ele>265.460000</ele>
        <time>2009-08-18T09:58:50Z</time>
      </trkpt>
      <trkpt lat="50.710480" lon="6.448202">
        <ele>265.460000</ele>
        <time>2009-08-18T09:58:56Z</time>
      </trkpt>
      <trkpt lat="50.710376" lon="6.448425">
        <ele>264.980000</ele>
        <time>2009-08-18T09:59:08Z</time>
      </trkpt>
      <trkpt lat="50.710341" lon="6.448549">
        <ele>264.980000</ele>
        <time>2009-08-18T09:59:13Z</time>
      </trkpt>
      <trkpt lat="50.710205" lon="6.448688">
        <ele>264.980000</ele>
        <time>2009-08-18T09:59:25Z</time>
      </trkpt>
      <trkpt lat="50.710086" lon="6.448865">
        <ele>264.500000</ele>
        <time>2009-08-18T09:59:37Z</time>
      </trkpt>
      <trkpt lat="50.710077" lon="6.448909">
        <ele>264.500000</ele>
        <time>2009-08-18T09:59:40Z</time>
      </trkpt>
      <trkpt lat="50.710046" lon="6.448955">
        <ele>264.500000</ele>
        <time>2009-08-18T09:59:44Z</time>
      </trkpt>
      <trkpt lat="50.709939" lon="6.449027">
        <ele>264.500000</ele>
        <time>2009-08-18T09:59:57Z</time>
      </trkpt>
      <trkpt lat="50.709787" lon="6.449022">
        <ele>264.020000</ele>
        <time>2009-08-18T10:00:09Z</time>
      </trkpt>
      <trkpt lat="50.709672" lon="6.448833">
        <ele>264.500000</ele>
        <time>2009-08-18T10:00:16Z</time>
      </trkpt>
      <trkpt lat="50.709666" lon="6.448790">
        <ele>264.500000</ele>
        <time>2009-08-18T10:00:19Z</time>
      </trkpt>
      <trkpt lat="50.709701" lon="6.448677">
        <ele>264.020000</ele>
        <time>2009-08-18T10:00:25Z</time>
      </trkpt>
      <trkpt lat="50.709649" lon="6.448356">
        <ele>264.020000</ele>
        <time>2009-08-18T10:00:38Z</time>
      </trkpt>
      <trkpt lat="50.709584" lon="6.448171">
        <ele>264.020000</ele>
        <time>2009-08-18T10:00:49Z</time>
      </trkpt>
      <trkpt lat="50.709546" lon="6.448062">
        <ele>264.020000</ele>
        <time>2009-08-18T10:00:53Z</time>
      </trkpt>
      <trkpt lat="50.709514" lon="6.447930">
        <ele>263.540000</ele>
        <time>2009-08-18T10:01:00Z</time>
      </trkpt>
      <trkpt lat="50.709494" lon="6.447776">
        <ele>263.540000</ele>
        <time>2009-08-18T10:01:07Z</time>
      </trkpt>
      <trkpt lat="50.709421" lon="6.447690">
        <ele>263.060000</ele>
        <time>2009-08-18T10:01:11Z</time>
      </trkpt>
      <trkpt lat="50.709437" lon="6.447642">
        <ele>263.540000</ele>
        <time>2009-08-18T10:01:27Z</time>
      </trkpt>
      <trkpt lat="50.709329" lon="6.447436">
        <ele>263.060000</ele>
        <time>2009-08-18T10:01:50Z</time>
      </trkpt>
      <trkpt lat="50.709202" lon="6.447186">
        <ele>262.580000</ele>
        <time>2009-08-18T10:02:05Z</time>
      </trkpt>
      <trkpt lat="50.709166" lon="6.447099">
        <ele>263.060000</ele>
        <time>2009-08-18T10:02:17Z</time>
      </trkpt>
      <trkpt lat="50.709134" lon="6.447067">
        <ele>262.100000</ele>
        <time>2009-08-18T10:03:05Z</time>
      </trkpt>
      <trkpt lat="50.708939" lon="6.446888">
        <ele>261.620000</ele>
        <time>2009-08-18T10:03:18Z</time>
      </trkpt>
      <trkpt lat="50.708813" lon="6.446766">
        <ele>262.100000</ele>
        <time>2009-08-18T10:03:31Z</time>
      </trkpt>
      <trkpt lat="50.708794" lon="6.446759">
        <ele>262.100000</ele>
        <time>2009-08-18T10:03:33Z</time>
      </trkpt>
      <trkpt lat="50.708769" lon="6.446744">
        <ele>262.100000</ele>
        <time>2009-08-18T10:03:35Z</time>
      </trkpt>
      <trkpt lat="50.708582" lon="6.446800">
        <ele>261.620000</ele>
        <time>2009-08-18T10:03:49Z</time>
      </trkpt>
      <trkpt lat="50.708384" lon="6.446925">
        <ele>261.620000</ele>
        <time>2009-08-18T10:04:03Z</time>
      </trkpt>
      <trkpt lat="50.708345" lon="6.446920">
        <ele>261.620000</ele>
        <time>2009-08-18T10:04:05Z</time>
      </trkpt>
      <trkpt lat="50.708229" lon="6.446911">
        <ele>261.620000</ele>
        <time>2009-08-18T10:04:11Z</time>
      </trkpt>
      <trkpt lat="50.708102" lon="6.446818">
        <ele>261.620000</ele>
        <time>2009-08-18T10:04:22Z</time>
      </trkpt>
      <trkpt lat="50.707984" lon="6.446584">
        <ele>261.140000</ele>
        <time>2009-08-18T10:04:35Z</time>
      </trkpt>
      <trkpt lat="50.707866" lon="6.446292">
        <ele>261.140000</ele>
        <time>2009-08-18T10:04:48Z</time>
      </trkpt>
      <trkpt lat="50.707689" lon="6.446086">
        <ele>260.650000</ele>
        <time>2009-08-18T10:05:03Z</time>
      </trkpt>
      <trkpt lat="50.707570" lon="6.446041">
        <ele>260.170000</ele>
        <time>2009-08-18T10:05:13Z</time>
      </trkpt>
      <trkpt lat="50.707550" lon="6.446029">
        <ele>260.170000</ele>
        <time>2009-08-18T10:05:15Z</time>
      </trkpt>
      <trkpt lat="50.707291" lon="6.445946">
        <ele>260.170000</ele>
        <time>2009-08-18T10:05:32Z</time>
      </trkpt>
      <trkpt lat="50.707046" lon="6.445839">
        <ele>260.170000</ele>
        <time>2009-08-18T10:05:48Z</time>
      </trkpt>
      <trkpt lat="50.706832" lon="6.445790">
        <ele>260.170000</ele>
        <time>2009-08-18T10:06:02Z</time>
      </trkpt>
      <trkpt lat="50.706701" lon="6.445775">
        <ele>259.690000</ele>
        <time>2009-08-18T10:06:12Z</time>
      </trkpt>
      <trkpt lat="50.706481" lon="6.445791">
        <ele>259.690000</ele>
        <time>2009-08-18T10:06:27Z</time>
      </trkpt>
      <trkpt lat="50.706438" lon="6.445795">
        <ele>259.690000</ele>
        <time>2009-08-18T10:06:30Z</time>
      </trkpt>
      <trkpt lat="50.706378" lon="6.445724">
        <ele>258.730000</ele>
        <time>2009-08-18T10:06:43Z</time>
      </trkpt>
      <trkpt lat="50.706395" lon="6.445723">
        <ele>258.730000</ele>
        <time>2009-08-18T10:07:35Z</time>
      </trkpt>
      <trkpt lat="50.706206" lon="6.445754">
        <ele>259.690000</ele>
        <time>2009-08-18T10:09:17Z</time>
      </trkpt>
      <trkpt lat="50.706091" lon="6.445939">
        <ele>258.730000</ele>
        <time>2009-08-18T10:09:36Z</time>
      </trkpt>
      <trkpt lat="50.706012" lon="6.446230">
        <ele>258.250000</ele>
        <time>2009-08-18T10:09:53Z</time>
      </trkpt>
      <trkpt lat="50.705897" lon="6.446421">
        <ele>258.730000</ele>
        <time>2009-08-18T10:10:06Z</time>
      </trkpt>
      <trkpt lat="50.705792" lon="6.446749">
        <ele>258.730000</ele>
        <time>2009-08-18T10:10:20Z</time>
      </trkpt>
      <trkpt lat="50.705682" lon="6.447001">
        <ele>258.250000</ele>
        <time>2009-08-18T10:10:33Z</time>
      </trkpt>
      <trkpt lat="50.705603" lon="6.447236">
        <ele>258.250000</ele>
        <time>2009-08-18T10:10:44Z</time>
      </trkpt>
      <trkpt lat="50.705567" lon="6.447455">
        <ele>257.770000</ele>
        <time>2009-08-18T10:10:59Z</time>
      </trkpt>
      <trkpt lat="50.705484" lon="6.447552">
        <ele>257.770000</ele>
        <time>2009-08-18T10:11:21Z</time>
      </trkpt>
      <trkpt lat="50.705351" lon="6.447786">
        <ele>258.250000</ele>
        <time>2009-08-18T10:11:46Z</time>
      </trkpt>
      <trkpt lat="50.705098" lon="6.447994">
        <ele>257.290000</ele>
        <time>2009-08-18T10:11:58Z</time>
      </trkpt>
      <trkpt lat="50.705115" lon="6.448148">
        <ele>257.290000</ele>
        <time>2009-08-18T10:12:02Z</time>
      </trkpt>
      <trkpt lat="50.705070" lon="6.448230">
        <ele>256.810000</ele>
        <time>2009-08-18T10:12:09Z</time>
      </trkpt>
      <trkpt lat="50.704940" lon="6.448379">
        <ele>256.810000</ele>
        <time>2009-08-18T10:12:22Z</time>
      </trkpt>
      <trkpt lat="50.704732" lon="6.448472">
        <ele>257.290000</ele>
        <time>2009-08-18T10:12:41Z</time>
      </trkpt>
      <trkpt lat="50.704527" lon="6.448580">
        <ele>256.810000</ele>
        <time>2009-08-18T10:12:54Z</time>
      </trkpt>
      <trkpt lat="50.704357" lon="6.448722">
        <ele>256.810000</ele>
        <time>2009-08-18T10:13:09Z</time>
      </trkpt>
      <trkpt lat="50.704212" lon="6.449014">
        <ele>256.810000</ele>
        <time>2009-08-18T10:13:23Z</time>
      </trkpt>
      <trkpt lat="50.704118" lon="6.449248">
        <ele>256.810000</ele>
        <time>2009-08-18T10:13:35Z</time>
      </trkpt>
      <trkpt lat="50.704085" lon="6.449299">
        <ele>256.810000</ele>
        <time>2009-08-18T10:13:38Z</time>
      </trkpt>
      <trkpt lat="50.703961" lon="6.449466">
        <ele>256.810000</ele>
        <time>2009-08-18T10:13:52Z</time>
      </trkpt>
      <trkpt lat="50.703708" lon="6.449741">
        <ele>256.810000</ele>
        <time>2009-08-18T10:14:12Z</time>
      </trkpt>
      <trkpt lat="50.703683" lon="6.449766">
        <ele>256.810000</ele>
        <time>2009-08-18T10:14:14Z</time>
      </trkpt>
      <trkpt lat="50.703571" lon="6.449804">
        <ele>256.330000</ele>
        <time>2009-08-18T10:14:25Z</time>
      </trkpt>
      <trkpt lat="50.703373" lon="6.449718">
        <ele>256.810000</ele>
        <time>2009-08-18T10:14:38Z</time>
      </trkpt>
      <trkpt lat="50.703246" lon="6.449440">
        <ele>257.770000</ele>
        <time>2009-08-18T10:14:52Z</time>
      </trkpt>
      <trkpt lat="50.703145" lon="6.449330">
        <ele>258.250000</ele>
        <time>2009-08-18T10:14:59Z</time>
      </trkpt>
      <trkpt lat="50.703104" lon="6.449261">
        <ele>258.250000</ele>
        <time>2009-08-18T10:15:03Z</time>
      </trkpt>
      <trkpt lat="50.703081" lon="6.449104">
        <ele>258.250000</ele>
        <time>2009-08-18T10:15:09Z</time>
      </trkpt>
      <trkpt lat="50.703057" lon="6.449046">
        <ele>257.770000</ele>
        <time>2009-08-18T10:15:23Z</time>
      </trkpt>
      <trkpt lat="50.703017" lon="6.449067">
        <ele>258.730000</ele>
        <time>2009-08-18T10:15:49Z</time>
      </trkpt>
      <trkpt lat="50.703038" lon="6.449039">
        <ele>259.210000</ele>
        <time>2009-08-18T10:16:09Z</time>
      </trkpt>
      <trkpt lat="50.703037" lon="6.449108">
        <ele>262.100000</ele>
        <time>2009-08-18T10:16:28Z</time>
      </trkpt>
      <trkpt lat="50.702967" lon="6.449354">
        <ele>265.460000</ele>
        <time>2009-08-18T10:16:42Z</time>
      </trkpt>
      <trkpt lat="50.703000" lon="6.449593">
        <ele>266.900000</ele>
        <time>2009-08-18T10:16:59Z</time>
      </trkpt>
      <trkpt lat="50.703012" lon="6.449599">
        <ele>270.270000</ele>
        <time>2009-08-18T10:17:13Z</time>
      </trkpt>
      <trkpt lat="50.703006" lon="6.449675">
        <ele>272.670000</ele>
        <time>2009-08-18T10:17:24Z</time>
      </trkpt>
      <trkpt lat="50.703027" lon="6.450022">
        <ele>276.520000</ele>
        <time>2009-08-18T10:17:39Z</time>
      </trkpt>
      <trkpt lat="50.703035" lon="6.450147">
        <ele>279.400000</ele>
        <time>2009-08-18T10:17:51Z</time>
      </trkpt>
      <trkpt lat="50.703058" lon="6.450269">
        <ele>282.770000</ele>
        <time>2009-08-18T10:18:02Z</time>
      </trkpt>
      <trkpt lat="50.703037" lon="6.450471">
        <ele>286.130000</ele>
        <time>2009-08-18T10:18:15Z</time>
      </trkpt>
      <trkpt lat="50.703035" lon="6.450610">
        <ele>288.530000</ele>
        <time>2009-08-18T10:18:32Z</time>
      </trkpt>
      <trkpt lat="50.703086" lon="6.450722">
        <ele>290.460000</ele>
        <time>2009-08-18T10:18:44Z</time>
      </trkpt>
      <trkpt lat="50.703102" lon="6.450892">
        <ele>293.820000</ele>
        <time>2009-08-18T10:19:02Z</time>
      </trkpt>
      <trkpt lat="50.703154" lon="6.451160">
        <ele>296.220000</ele>
        <time>2009-08-18T10:19:18Z</time>
      </trkpt>
      <trkpt lat="50.703175" lon="6.451379">
        <ele>299.110000</ele>
        <time>2009-08-18T10:19:35Z</time>
      </trkpt>
      <trkpt lat="50.703192" lon="6.451526">
        <ele>302.470000</ele>
        <time>2009-08-18T10:19:50Z</time>
      </trkpt>
      <trkpt lat="50.703156" lon="6.451654">
        <ele>305.360000</ele>
        <time>2009-08-18T10:20:07Z</time>
      </trkpt>
      <trkpt lat="50.703153" lon="6.451894">
        <ele>308.240000</ele>
        <time>2009-08-18T10:20:38Z</time>
      </trkpt>
      <trkpt lat="50.703197" lon="6.452014">
        <ele>311.600000</ele>
        <time>2009-08-18T10:20:57Z</time>
      </trkpt>
      <trkpt lat="50.703228" lon="6.452154">
        <ele>314.490000</ele>
        <time>2009-08-18T10:21:16Z</time>
      </trkpt>
      <trkpt lat="50.703296" lon="6.452271">
        <ele>317.850000</ele>
        <time>2009-08-18T10:21:34Z</time>
      </trkpt>
      <trkpt lat="50.703372" lon="6.452438">
        <ele>321.220000</ele>
        <time>2009-08-18T10:21:59Z</time>
      </trkpt>
      <trkpt lat="50.703351" lon="6.452629">
        <ele>324.100000</ele>
        <time>2009-08-18T10:22:18Z</time>
      </trkpt>
      <trkpt lat="50.703371" lon="6.452755">
        <ele>326.990000</ele>
        <time>2009-08-18T10:22:39Z</time>
      </trkpt>
      <trkpt lat="50.703319" lon="6.452834">
        <ele>330.350000</ele>
        <time>2009-08-18T10:22:53Z</time>
      </trkpt>
      <trkpt lat="50.703325" lon="6.452973">
        <ele>332.750000</ele>
        <time>2009-08-18T10:23:12Z</time>
      </trkpt>
      <trkpt lat="50.703387" lon="6.453053">
        <ele>335.160000</ele>
        <time>2009-08-18T10:23:30Z</time>
      </trkpt>
      <trkpt lat="50.703405" lon="6.453091">
        <ele>338.040000</ele>
        <time>2009-08-18T10:23:48Z</time>
      </trkpt>
      <trkpt lat="50.703310" lon="6.453182">
        <ele>339.960000</ele>
        <time>2009-08-18T10:24:03Z</time>
      </trkpt>
      <trkpt lat="50.703306" lon="6.453197">
        <ele>339.480000</ele>
        <time>2009-08-18T10:24:40Z</time>
      </trkpt>
      <trkpt lat="50.703308" lon="6.453271">
        <ele>341.410000</ele>
        <time>2009-08-18T10:25:06Z</time>
      </trkpt>
      <trkpt lat="50.703303" lon="6.453300">
        <ele>342.370000</ele>
        <time>2009-08-18T10:27:05Z</time>
      </trkpt>
      <trkpt lat="50.703323" lon="6.453438">
        <ele>342.370000</ele>
        <time>2009-08-18T10:27:11Z</time>
      </trkpt>
      <trkpt lat="50.703343" lon="6.453507">
        <ele>342.850000</ele>
        <time>2009-08-18T10:27:32Z</time>
      </trkpt>
      <trkpt lat="50.703416" lon="6.453556">
        <ele>342.850000</ele>
        <time>2009-08-18T10:27:58Z</time>
      </trkpt>
      <trkpt lat="50.703434" lon="6.453680">
        <ele>342.850000</ele>
        <time>2009-08-18T10:28:14Z</time>
      </trkpt>
      <trkpt lat="50.703525" lon="6.453954">
        <ele>340.920000</ele>
        <time>2009-08-18T10:28:29Z</time>
      </trkpt>
      <trkpt lat="50.703563" lon="6.454200">
        <ele>342.850000</ele>
        <time>2009-08-18T10:28:43Z</time>
      </trkpt>
      <trkpt lat="50.703555" lon="6.454249">
        <ele>342.850000</ele>
        <time>2009-08-18T10:28:46Z</time>
      </trkpt>
      <trkpt lat="50.703575" lon="6.454292">
        <ele>342.850000</ele>
        <time>2009-08-18T10:28:48Z</time>
      </trkpt>
      <trkpt lat="50.703589" lon="6.454333">
        <ele>343.810000</ele>
        <time>2009-08-18T10:28:50Z</time>
      </trkpt>
      <trkpt lat="50.703590" lon="6.454538">
        <ele>346.210000</ele>
        <time>2009-08-18T10:29:06Z</time>
      </trkpt>
      <trkpt lat="50.703569" lon="6.454611">
        <ele>347.170000</ele>
        <time>2009-08-18T10:29:29Z</time>
      </trkpt>
      <trkpt lat="50.703569" lon="6.454575">
        <ele>347.170000</ele>
        <time>2009-08-18T10:29:48Z</time>
      </trkpt>
      <trkpt lat="50.703662" lon="6.454678">
        <ele>347.650000</ele>
        <time>2009-08-18T10:30:30Z</time>
      </trkpt>
      <trkpt lat="50.703686" lon="6.454712">
        <ele>346.690000</ele>
        <time>2009-08-18T10:30:34Z</time>
      </trkpt>
      <trkpt lat="50.703719" lon="6.454833">
        <ele>346.690000</ele>
        <time>2009-08-18T10:30:41Z</time>
      </trkpt>
      <trkpt lat="50.703829" lon="6.455160">
        <ele>344.770000</ele>
        <time>2009-08-18T10:31:00Z</time>
      </trkpt>
      <trkpt lat="50.703923" lon="6.455253">
        <ele>341.890000</ele>
        <time>2009-08-18T10:31:10Z</time>
      </trkpt>
      <trkpt lat="50.704068" lon="6.455409">
        <ele>340.440000</ele>
        <time>2009-08-18T10:31:20Z</time>
      </trkpt>
      <trkpt lat="50.704077" lon="6.455435">
        <ele>339.960000</ele>
        <time>2009-08-18T10:31:22Z</time>
      </trkpt>
      <trkpt lat="50.704149" lon="6.455551">
        <ele>339.480000</ele>
        <time>2009-08-18T10:31:28Z</time>
      </trkpt>
      <trkpt lat="50.704207" lon="6.455775">
        <ele>339.000000</ele>
        <time>2009-08-18T10:31:41Z</time>
      </trkpt>
      <trkpt lat="50.704350" lon="6.456166">
        <ele>341.890000</ele>
        <time>2009-08-18T10:32:01Z</time>
      </trkpt>
      <trkpt lat="50.704382" lon="6.456410">
        <ele>345.250000</ele>
        <time>2009-08-18T10:32:14Z</time>
      </trkpt>
      <trkpt lat="50.704427" lon="6.456598">
        <ele>348.130000</ele>
        <time>2009-08-18T10:32:30Z</time>
      </trkpt>
      <trkpt lat="50.704412" lon="6.456785">
        <ele>350.540000</ele>
        <time>2009-08-18T10:32:42Z</time>
      </trkpt>
      <trkpt lat="50.704389" lon="6.456953">
        <ele>351.980000</ele>
        <time>2009-08-18T10:32:51Z</time>
      </trkpt>
      <trkpt lat="50.704400" lon="6.457075">
        <ele>352.460000</ele>
        <time>2009-08-18T10:32:57Z</time>
      </trkpt>
      <trkpt lat="50.704424" lon="6.457148">
        <ele>352.460000</ele>
        <time>2009-08-18T10:33:01Z</time>
      </trkpt>
      <trkpt lat="50.704449" lon="6.457194">
        <ele>351.980000</ele>
        <time>2009-08-18T10:33:05Z</time>
      </trkpt>
      <trkpt lat="50.704546" lon="6.457420">
        <ele>350.540000</ele>
        <time>2009-08-18T10:33:17Z</time>
      </trkpt>
      <trkpt lat="50.704559" lon="6.457443">
        <ele>350.540000</ele>
        <time>2009-08-18T10:33:19Z</time>
      </trkpt>
      <trkpt lat="50.704594" lon="6.457584">
        <ele>350.060000</ele>
        <time>2009-08-18T10:33:27Z</time>
      </trkpt>
      <trkpt lat="50.704610" lon="6.457642">
        <ele>349.580000</ele>
        <time>2009-08-18T10:33:30Z</time>
      </trkpt>
      <trkpt lat="50.704655" lon="6.457898">
        <ele>349.100000</ele>
        <time>2009-08-18T10:33:42Z</time>
      </trkpt>
      <trkpt lat="50.704741" lon="6.458249">
        <ele>349.100000</ele>
        <time>2009-08-18T10:33:58Z</time>
      </trkpt>
      <trkpt lat="50.704774" lon="6.458306">
        <ele>349.580000</ele>
        <time>2009-08-18T10:34:02Z</time>
      </trkpt>
      <trkpt lat="50.704834" lon="6.458382">
        <ele>349.580000</ele>
        <time>2009-08-18T10:34:06Z</time>
      </trkpt>
      <trkpt lat="50.704964" lon="6.458586">
        <ele>350.060000</ele>
        <time>2009-08-18T10:34:19Z</time>
      </trkpt>
      <trkpt lat="50.705112" lon="6.458871">
        <ele>351.020000</ele>
        <time>2009-08-18T10:34:39Z</time>
      </trkpt>
      <trkpt lat="50.705292" lon="6.459209">
        <ele>351.980000</ele>
        <time>2009-08-18T10:34:57Z</time>
      </trkpt>
      <trkpt lat="50.705363" lon="6.459447">
        <ele>353.900000</ele>
        <time>2009-08-18T10:35:11Z</time>
      </trkpt>
      <trkpt lat="50.705445" lon="6.459555">
        <ele>355.830000</ele>
        <time>2009-08-18T10:35:22Z</time>
      </trkpt>
      <trkpt lat="50.705488" lon="6.459749">
        <ele>358.230000</ele>
        <time>2009-08-18T10:35:34Z</time>
      </trkpt>
      <trkpt lat="50.705543" lon="6.459982">
        <ele>360.150000</ele>
        <time>2009-08-18T10:35:50Z</time>
      </trkpt>
      <trkpt lat="50.705649" lon="6.460190">
        <ele>361.590000</ele>
        <time>2009-08-18T10:36:15Z</time>
      </trkpt>
      <trkpt lat="50.705629" lon="6.460244">
        <ele>361.590000</ele>
        <time>2009-08-18T10:36:17Z</time>
      </trkpt>
      <trkpt lat="50.705436" lon="6.460523">
        <ele>363.520000</ele>
        <time>2009-08-18T10:36:36Z</time>
      </trkpt>
      <trkpt lat="50.705298" lon="6.460785">
        <ele>364.000000</ele>
        <time>2009-08-18T10:36:56Z</time>
      </trkpt>
      <trkpt lat="50.705296" lon="6.460873">
        <ele>364.960000</ele>
        <time>2009-08-18T10:37:00Z</time>
      </trkpt>
      <trkpt lat="50.705240" lon="6.461047">
        <ele>363.040000</ele>
        <time>2009-08-18T10:37:11Z</time>
      </trkpt>
      <trkpt lat="50.705146" lon="6.461202">
        <ele>360.150000</ele>
        <time>2009-08-18T10:37:25Z</time>
      </trkpt>
      <trkpt lat="50.705077" lon="6.461516">
        <ele>358.710000</ele>
        <time>2009-08-18T10:37:41Z</time>
      </trkpt>
      <trkpt lat="50.704944" lon="6.461830">
        <ele>355.830000</ele>
        <time>2009-08-18T10:37:58Z</time>
      </trkpt>
      <trkpt lat="50.704782" lon="6.462023">
        <ele>353.900000</ele>
        <time>2009-08-18T10:38:14Z</time>
      </trkpt>
      <trkpt lat="50.704644" lon="6.462310">
        <ele>351.500000</ele>
        <time>2009-08-18T10:38:32Z</time>
      </trkpt>
      <trkpt lat="50.704562" lon="6.462442">
        <ele>349.100000</ele>
        <time>2009-08-18T10:38:46Z</time>
      </trkpt>
      <trkpt lat="50.704358" lon="6.462812">
        <ele>350.060000</ele>
        <time>2009-08-18T10:39:06Z</time>
      </trkpt>
      <trkpt lat="50.704226" lon="6.463033">
        <ele>352.940000</ele>
        <time>2009-08-18T10:39:23Z</time>
      </trkpt>
      <trkpt lat="50.704028" lon="6.463311">
        <ele>354.380000</ele>
        <time>2009-08-18T10:39:42Z</time>
      </trkpt>
      <trkpt lat="50.703889" lon="6.463524">
        <ele>353.420000</ele>
        <time>2009-08-18T10:39:59Z</time>
      </trkpt>
      <trkpt lat="50.703812" lon="6.463624">
        <ele>350.060000</ele>
        <time>2009-08-18T10:40:12Z</time>
      </trkpt>
      <trkpt lat="50.703771" lon="6.463755">
        <ele>347.170000</ele>
        <time>2009-08-18T10:40:23Z</time>
      </trkpt>
      <trkpt lat="50.703657" lon="6.463952">
        <ele>343.810000</ele>
        <time>2009-08-18T10:40:37Z</time>
      </trkpt>
      <trkpt lat="50.703459" lon="6.464368">
        <ele>342.370000</ele>
        <time>2009-08-18T10:40:57Z</time>
      </trkpt>
      <trkpt lat="50.703416" lon="6.464642">
        <ele>342.370000</ele>
        <time>2009-08-18T10:41:10Z</time>
      </trkpt>
      <trkpt lat="50.703285" lon="6.465019">
        <ele>342.370000</ele>
        <time>2009-08-18T10:41:31Z</time>
      </trkpt>
      <trkpt lat="50.703133" lon="6.465221">
        <ele>341.890000</ele>
        <time>2009-08-18T10:41:55Z</time>
      </trkpt>
      <trkpt lat="50.702964" lon="6.465359">
        <ele>341.410000</ele>
        <time>2009-08-18T10:42:12Z</time>
      </trkpt>
      <trkpt lat="50.702871" lon="6.465314">
        <ele>341.890000</ele>
        <time>2009-08-18T10:42:29Z</time>
      </trkpt>
      <trkpt lat="50.702863" lon="6.465314">
        <ele>341.890000</ele>
        <time>2009-08-18T10:43:31Z</time>
      </trkpt>
      <trkpt lat="50.702854" lon="6.465320">
        <ele>341.890000</ele>
        <time>2009-08-18T10:43:45Z</time>
      </trkpt>
      <trkpt lat="50.702805" lon="6.465430">
        <ele>341.890000</ele>
        <time>2009-08-18T10:46:44Z</time>
      </trkpt>
      <trkpt lat="50.702730" lon="6.465461">
        <ele>338.520000</ele>
        <time>2009-08-18T10:47:02Z</time>
      </trkpt>
      <trkpt lat="50.702659" lon="6.465517">
        <ele>335.160000</ele>
        <time>2009-08-18T10:47:12Z</time>
      </trkpt>
      <trkpt lat="50.702574" lon="6.465652">
        <ele>332.270000</ele>
        <time>2009-08-18T10:47:26Z</time>
      </trkpt>
      <trkpt lat="50.702457" lon="6.465798">
        <ele>328.910000</ele>
        <time>2009-08-18T10:47:38Z</time>
      </trkpt>
      <trkpt lat="50.702217" lon="6.466016">
        <ele>325.540000</ele>
        <time>2009-08-18T10:47:59Z</time>
      </trkpt>
      <trkpt lat="50.702248" lon="6.465909">
        <ele>324.100000</ele>
        <time>2009-08-18T10:48:08Z</time>
      </trkpt>
      <trkpt lat="50.702313" lon="6.465680">
        <ele>322.660000</ele>
        <time>2009-08-18T10:48:21Z</time>
      </trkpt>
      <trkpt lat="50.702366" lon="6.465477">
        <ele>319.300000</ele>
        <time>2009-08-18T10:48:36Z</time>
      </trkpt>
      <trkpt lat="50.702279" lon="6.465577">
        <ele>316.410000</ele>
        <time>2009-08-18T10:48:49Z</time>
      </trkpt>
      <trkpt lat="50.702160" lon="6.465668">
        <ele>313.050000</ele>
        <time>2009-08-18T10:49:01Z</time>
      </trkpt>
      <trkpt lat="50.701868" lon="6.465702">
        <ele>309.680000</ele>
        <time>2009-08-18T10:49:18Z</time>
      </trkpt>
      <trkpt lat="50.701801" lon="6.465758">
        <ele>309.200000</ele>
        <time>2009-08-18T10:49:23Z</time>
      </trkpt>
      <trkpt lat="50.701628" lon="6.466081">
        <ele>305.840000</ele>
        <time>2009-08-18T10:49:41Z</time>
      </trkpt>
      <trkpt lat="50.701414" lon="6.466348">
        <ele>303.910000</ele>
        <time>2009-08-18T10:50:03Z</time>
      </trkpt>
      <trkpt lat="50.701215" lon="6.466447">
        <ele>301.030000</ele>
        <time>2009-08-18T10:50:19Z</time>
      </trkpt>
      <trkpt lat="50.700983" lon="6.466501">
        <ele>297.670000</ele>
        <time>2009-08-18T10:50:39Z</time>
      </trkpt>
      <trkpt lat="50.700795" lon="6.466523">
        <ele>295.740000</ele>
        <time>2009-08-18T10:50:57Z</time>
      </trkpt>
      <trkpt lat="50.700729" lon="6.466682">
        <ele>296.220000</ele>
        <time>2009-08-18T10:51:17Z</time>
      </trkpt>
      <trkpt lat="50.700577" lon="6.466931">
        <ele>299.110000</ele>
        <time>2009-08-18T10:51:49Z</time>
      </trkpt>
      <trkpt lat="50.700435" lon="6.467383">
        <ele>298.630000</ele>
        <time>2009-08-18T10:52:09Z</time>
      </trkpt>
      <trkpt lat="50.700248" lon="6.467515">
        <ele>301.030000</ele>
        <time>2009-08-18T10:52:29Z</time>
      </trkpt>
      <trkpt lat="50.700081" lon="6.467733">
        <ele>301.990000</ele>
        <time>2009-08-18T10:52:43Z</time>
      </trkpt>
      <trkpt lat="50.699870" lon="6.467786">
        <ele>301.990000</ele>
        <time>2009-08-18T10:52:59Z</time>
      </trkpt>
      <trkpt lat="50.699695" lon="6.467844">
        <ele>301.990000</ele>
        <time>2009-08-18T10:53:18Z</time>
      </trkpt>
      <trkpt lat="50.699541" lon="6.468149">
        <ele>303.430000</ele>
        <time>2009-08-18T10:53:41Z</time>
      </trkpt>
      <trkpt lat="50.699442" lon="6.468468">
        <ele>305.360000</ele>
        <time>2009-08-18T10:54:02Z</time>
      </trkpt>
      <trkpt lat="50.699409" lon="6.468728">
        <ele>305.360000</ele>
        <time>2009-08-18T10:54:14Z</time>
      </trkpt>
      <trkpt lat="50.699407" lon="6.469170">
        <ele>307.280000</ele>
        <time>2009-08-18T10:54:37Z</time>
      </trkpt>
      <trkpt lat="50.699312" lon="6.469536">
        <ele>308.720000</ele>
        <time>2009-08-18T10:54:57Z</time>
      </trkpt>
      <trkpt lat="50.699166" lon="6.469956">
        <ele>309.680000</ele>
        <time>2009-08-18T10:55:19Z</time>
      </trkpt>
      <trkpt lat="50.699126" lon="6.470013">
        <ele>310.160000</ele>
        <time>2009-08-18T10:55:24Z</time>
      </trkpt>
      <trkpt lat="50.698972" lon="6.470207">
        <ele>309.680000</ele>
        <time>2009-08-18T10:55:38Z</time>
      </trkpt>
      <trkpt lat="50.698782" lon="6.470462">
        <ele>311.120000</ele>
        <time>2009-08-18T10:55:57Z</time>
      </trkpt>
      <trkpt lat="50.698759" lon="6.470697">
        <ele>312.090000</ele>
        <time>2009-08-18T10:56:10Z</time>
      </trkpt>
      <trkpt lat="50.698635" lon="6.470995">
        <ele>312.570000</ele>
        <time>2009-08-18T10:56:25Z</time>
      </trkpt>
      <trkpt lat="50.698540" lon="6.471255">
        <ele>313.050000</ele>
        <time>2009-08-18T10:56:39Z</time>
      </trkpt>
      <trkpt lat="50.698439" lon="6.471511">
        <ele>314.010000</ele>
        <time>2009-08-18T10:56:52Z</time>
      </trkpt>
      <trkpt lat="50.698340" lon="6.471716">
        <ele>314.490000</ele>
        <time>2009-08-18T10:57:05Z</time>
      </trkpt>
      <trkpt lat="50.698287" lon="6.472031">
        <ele>315.930000</ele>
        <time>2009-08-18T10:57:20Z</time>
      </trkpt>
      <trkpt lat="50.698282" lon="6.472047">
        <ele>315.450000</ele>
        <time>2009-08-18T10:57:21Z</time>
      </trkpt>
      <trkpt lat="50.698229" lon="6.472200">
        <ele>316.410000</ele>
        <time>2009-08-18T10:57:27Z</time>
      </trkpt>
      <trkpt lat="50.698102" lon="6.472470">
        <ele>317.370000</ele>
        <time>2009-08-18T10:57:45Z</time>
      </trkpt>
      <trkpt lat="50.698060" lon="6.472502">
        <ele>316.890000</ele>
        <time>2009-08-18T10:57:48Z</time>
      </trkpt>
      <trkpt lat="50.697759" lon="6.472691">
        <ele>314.010000</ele>
        <time>2009-08-18T10:58:13Z</time>
      </trkpt>
      <trkpt lat="50.697631" lon="6.472683">
        <ele>313.530000</ele>
        <time>2009-08-18T10:58:22Z</time>
      </trkpt>
      <trkpt lat="50.697294" lon="6.472493">
        <ele>314.490000</ele>
        <time>2009-08-18T10:58:44Z</time>
      </trkpt>
      <trkpt lat="50.697184" lon="6.472236">
        <ele>314.490000</ele>
        <time>2009-08-18T10:58:59Z</time>
      </trkpt>
      <trkpt lat="50.697117" lon="6.471942">
        <ele>315.450000</ele>
        <time>2009-08-18T10:59:13Z</time>
      </trkpt>
      <trkpt lat="50.697109" lon="6.471586">
        <ele>318.330000</ele>
        <time>2009-08-18T10:59:30Z</time>
      </trkpt>
      <trkpt lat="50.697003" lon="6.471380">
        <ele>319.300000</ele>
        <time>2009-08-18T10:59:46Z</time>
      </trkpt>
      <trkpt lat="50.696882" lon="6.471049">
        <ele>319.780000</ele>
        <time>2009-08-18T11:00:02Z</time>
      </trkpt>
      <trkpt lat="50.696822" lon="6.470967">
        <ele>318.810000</ele>
        <time>2009-08-18T11:00:07Z</time>
      </trkpt>
      <trkpt lat="50.696759" lon="6.470837">
        <ele>317.370000</ele>
        <time>2009-08-18T11:00:20Z</time>
      </trkpt>
      <trkpt lat="50.696654" lon="6.470724">
        <ele>314.970000</ele>
        <time>2009-08-18T11:00:41Z</time>
      </trkpt>
      <trkpt lat="50.696456" lon="6.470688">
        <ele>312.090000</ele>
        <time>2009-08-18T11:01:00Z</time>
      </trkpt>
      <trkpt lat="50.696373" lon="6.470705">
        <ele>311.600000</ele>
        <time>2009-08-18T11:01:07Z</time>
      </trkpt>
      <trkpt lat="50.696254" lon="6.470562">
        <ele>309.680000</ele>
        <time>2009-08-18T11:01:21Z</time>
      </trkpt>
      <trkpt lat="50.696288" lon="6.470359">
        <ele>307.760000</ele>
        <time>2009-08-18T11:01:32Z</time>
      </trkpt>
      <trkpt lat="50.696343" lon="6.469863">
        <ele>304.390000</ele>
        <time>2009-08-18T11:01:52Z</time>
      </trkpt>
      <trkpt lat="50.696470" lon="6.469586">
        <ele>302.470000</ele>
        <time>2009-08-18T11:02:04Z</time>
      </trkpt>
      <trkpt lat="50.696468" lon="6.469505">
        <ele>302.470000</ele>
        <time>2009-08-18T11:02:07Z</time>
      </trkpt>
      <trkpt lat="50.696487" lon="6.469234">
        <ele>300.070000</ele>
        <time>2009-08-18T11:02:21Z</time>
      </trkpt>
      <trkpt lat="50.696540" lon="6.468848">
        <ele>298.150000</ele>
        <time>2009-08-18T11:02:39Z</time>
      </trkpt>
      <trkpt lat="50.696617" lon="6.468449">
        <ele>295.260000</ele>
        <time>2009-08-18T11:03:00Z</time>
      </trkpt>
      <trkpt lat="50.696631" lon="6.468222">
        <ele>292.380000</ele>
        <time>2009-08-18T11:03:12Z</time>
      </trkpt>
      <trkpt lat="50.696455" lon="6.467884">
        <ele>289.970000</ele>
        <time>2009-08-18T11:03:29Z</time>
      </trkpt>
      <trkpt lat="50.696407" lon="6.467725">
        <ele>289.010000</ele>
        <time>2009-08-18T11:03:39Z</time>
      </trkpt>
      <trkpt lat="50.696230" lon="6.467625">
        <ele>287.090000</ele>
        <time>2009-08-18T11:03:55Z</time>
      </trkpt>
      <trkpt lat="50.696135" lon="6.467488">
        <ele>285.170000</ele>
        <time>2009-08-18T11:04:06Z</time>
      </trkpt>
      <trkpt lat="50.695964" lon="6.467279">
        <ele>282.770000</ele>
        <time>2009-08-18T11:04:21Z</time>
      </trkpt>
      <trkpt lat="50.695686" lon="6.467136">
        <ele>281.320000</ele>
        <time>2009-08-18T11:04:40Z</time>
      </trkpt>
      <trkpt lat="50.695493" lon="6.467067">
        <ele>280.360000</ele>
        <time>2009-08-18T11:05:00Z</time>
      </trkpt>
      <trkpt lat="50.695337" lon="6.466968">
        <ele>280.360000</ele>
        <time>2009-08-18T11:05:13Z</time>
      </trkpt>
      <trkpt lat="50.695201" lon="6.466947">
        <ele>281.320000</ele>
        <time>2009-08-18T11:05:33Z</time>
      </trkpt>
      <trkpt lat="50.695237" lon="6.466935">
        <ele>280.360000</ele>
        <time>2009-08-18T11:05:51Z</time>
      </trkpt>
      <trkpt lat="50.695187" lon="6.466855">
        <ele>279.400000</ele>
        <time>2009-08-18T11:06:01Z</time>
      </trkpt>
      <trkpt lat="50.695039" lon="6.466395">
        <ele>278.440000</ele>
        <time>2009-08-18T11:06:22Z</time>
      </trkpt>
      <trkpt lat="50.695020" lon="6.466137">
        <ele>277.960000</ele>
        <time>2009-08-18T11:06:33Z</time>
      </trkpt>
      <trkpt lat="50.694929" lon="6.465937">
        <ele>275.070000</ele>
        <time>2009-08-18T11:06:46Z</time>
      </trkpt>
      <trkpt lat="50.694889" lon="6.465726">
        <ele>272.670000</ele>
        <time>2009-08-18T11:06:58Z</time>
      </trkpt>
      <trkpt lat="50.694773" lon="6.465455">
        <ele>271.230000</ele>
        <time>2009-08-18T11:07:14Z</time>
      </trkpt>
      <trkpt lat="50.694654" lon="6.465107">
        <ele>268.350000</ele>
        <time>2009-08-18T11:07:34Z</time>
      </trkpt>
      <trkpt lat="50.694615" lon="6.464920">
        <ele>268.350000</ele>
        <time>2009-08-18T11:07:44Z</time>
      </trkpt>
      <trkpt lat="50.694454" lon="6.464551">
        <ele>266.900000</ele>
        <time>2009-08-18T11:08:04Z</time>
      </trkpt>
      <trkpt lat="50.694446" lon="6.464526">
        <ele>266.420000</ele>
        <time>2009-08-18T11:08:05Z</time>
      </trkpt>
      <trkpt lat="50.694389" lon="6.464259">
        <ele>264.020000</ele>
        <time>2009-08-18T11:08:20Z</time>
      </trkpt>
      <trkpt lat="50.694304" lon="6.464108">
        <ele>263.540000</ele>
        <time>2009-08-18T11:08:38Z</time>
      </trkpt>
      <trkpt lat="50.694277" lon="6.463791">
        <ele>260.650000</ele>
        <time>2009-08-18T11:08:54Z</time>
      </trkpt>
      <trkpt lat="50.694240" lon="6.463480">
        <ele>257.290000</ele>
        <time>2009-08-18T11:09:08Z</time>
      </trkpt>
      <trkpt lat="50.694268" lon="6.463267">
        <ele>253.930000</ele>
        <time>2009-08-18T11:09:21Z</time>
      </trkpt>
      <trkpt lat="50.694271" lon="6.463210">
        <ele>252.960000</ele>
        <time>2009-08-18T11:09:24Z</time>
      </trkpt>
      <trkpt lat="50.694266" lon="6.463160">
        <ele>252.480000</ele>
        <time>2009-08-18T11:09:26Z</time>
      </trkpt>
      <trkpt lat="50.694276" lon="6.463084">
        <ele>252.000000</ele>
        <time>2009-08-18T11:09:29Z</time>
      </trkpt>
      <trkpt lat="50.694285" lon="6.463018">
        <ele>251.520000</ele>
        <time>2009-08-18T11:09:32Z</time>
      </trkpt>
      <trkpt lat="50.694276" lon="6.462950">
        <ele>251.040000</ele>
        <time>2009-08-18T11:09:35Z</time>
      </trkpt>
      <trkpt lat="50.694219" lon="6.462662">
        <ele>248.160000</ele>
        <time>2009-08-18T11:09:52Z</time>
      </trkpt>
      <trkpt lat="50.694219" lon="6.462624">
        <ele>248.160000</ele>
        <time>2009-08-18T11:09:54Z</time>
      </trkpt>
      <trkpt lat="50.694218" lon="6.462474">
        <ele>247.200000</ele>
        <time>2009-08-18T11:10:00Z</time>
      </trkpt>
      <trkpt lat="50.694218" lon="6.462427">
        <ele>247.200000</ele>
        <time>2009-08-18T11:10:02Z</time>
      </trkpt>
      <trkpt lat="50.694225" lon="6.462047">
        <ele>245.270000</ele>
        <time>2009-08-18T11:10:19Z</time>
      </trkpt>
      <trkpt lat="50.694230" lon="6.461979">
        <ele>244.790000</ele>
        <time>2009-08-18T11:10:22Z</time>
      </trkpt>
      <trkpt lat="50.694209" lon="6.461813">
        <ele>244.310000</ele>
        <time>2009-08-18T11:10:30Z</time>
      </trkpt>
      <trkpt lat="50.694169" lon="6.461749">
        <ele>243.830000</ele>
        <time>2009-08-18T11:10:33Z</time>
      </trkpt>
      <trkpt lat="50.693983" lon="6.461679">
        <ele>242.390000</ele>
        <time>2009-08-18T11:10:48Z</time>
      </trkpt>
      <trkpt lat="50.693899" lon="6.461594">
        <ele>240.950000</ele>
        <time>2009-08-18T11:10:57Z</time>
      </trkpt>
      <trkpt lat="50.693786" lon="6.461139">
        <ele>239.020000</ele>
        <time>2009-08-18T11:11:15Z</time>
      </trkpt>
      <trkpt lat="50.693800" lon="6.460908">
        <ele>236.620000</ele>
        <time>2009-08-18T11:11:29Z</time>
      </trkpt>
      <trkpt lat="50.693803" lon="6.460886">
        <ele>236.620000</ele>
        <time>2009-08-18T11:11:30Z</time>
      </trkpt>
      <trkpt lat="50.693914" lon="6.460392">
        <ele>233.740000</ele>
        <time>2009-08-18T11:11:50Z</time>
      </trkpt>
      <trkpt lat="50.693927" lon="6.460298">
        <ele>233.260000</ele>
        <time>2009-08-18T11:11:54Z</time>
      </trkpt>
      <trkpt lat="50.693948" lon="6.460108">
        <ele>232.780000</ele>
        <time>2009-08-18T11:12:05Z</time>
      </trkpt>
      <trkpt lat="50.693988" lon="6.459993">
        <ele>232.300000</ele>
        <time>2009-08-18T11:12:10Z</time>
      </trkpt>
      <trkpt lat="50.693993" lon="6.459887">
        <ele>231.330000</ele>
        <time>2009-08-18T11:12:17Z</time>
      </trkpt>
      <trkpt lat="50.693997" lon="6.459677">
        <ele>230.370000</ele>
        <time>2009-08-18T11:12:26Z</time>
      </trkpt>
      <trkpt lat="50.694021" lon="6.459532">
        <ele>229.890000</ele>
        <time>2009-08-18T11:12:31Z</time>
      </trkpt>
      <trkpt lat="50.694044" lon="6.459325">
        <ele>227.970000</ele>
        <time>2009-08-18T11:12:43Z</time>
      </trkpt>
      <trkpt lat="50.694166" lon="6.458986">
        <ele>225.090000</ele>
        <time>2009-08-18T11:13:01Z</time>
      </trkpt>
      <trkpt lat="50.694224" lon="6.458899">
        <ele>224.120000</ele>
        <time>2009-08-18T11:13:06Z</time>
      </trkpt>
      <trkpt lat="50.694404" lon="6.458526">
        <ele>221.240000</ele>
        <time>2009-08-18T11:13:28Z</time>
      </trkpt>
      <trkpt lat="50.694409" lon="6.458493">
        <ele>220.760000</ele>
        <time>2009-08-18T11:13:30Z</time>
      </trkpt>
      <trkpt lat="50.694556" lon="6.458312">
        <ele>218.360000</ele>
        <time>2009-08-18T11:13:46Z</time>
      </trkpt>
      <trkpt lat="50.694746" lon="6.458109">
        <ele>215.470000</ele>
        <time>2009-08-18T11:14:05Z</time>
      </trkpt>
      <trkpt lat="50.694755" lon="6.458079">
        <ele>215.470000</ele>
        <time>2009-08-18T11:14:06Z</time>
      </trkpt>
      <trkpt lat="50.694716" lon="6.457733">
        <ele>213.070000</ele>
        <time>2009-08-18T11:14:23Z</time>
      </trkpt>
      <trkpt lat="50.694651" lon="6.457561">
        <ele>211.630000</ele>
        <time>2009-08-18T11:14:32Z</time>
      </trkpt>
      <trkpt lat="50.694612" lon="6.457386">
        <ele>210.670000</ele>
        <time>2009-08-18T11:14:40Z</time>
      </trkpt>
      <trkpt lat="50.694603" lon="6.457223">
        <ele>209.700000</ele>
        <time>2009-08-18T11:14:54Z</time>
      </trkpt>
      <trkpt lat="50.694583" lon="6.457083">
        <ele>207.780000</ele>
        <time>2009-08-18T11:15:03Z</time>
      </trkpt>
      <trkpt lat="50.694539" lon="6.456814">
        <ele>205.860000</ele>
        <time>2009-08-18T11:15:17Z</time>
      </trkpt>
      <trkpt lat="50.694469" lon="6.456536">
        <ele>203.460000</ele>
        <time>2009-08-18T11:15:31Z</time>
      </trkpt>
      <trkpt lat="50.694464" lon="6.456523">
        <ele>203.460000</ele>
        <time>2009-08-18T11:15:32Z</time>
      </trkpt>
      <trkpt lat="50.694364" lon="6.456211">
        <ele>200.570000</ele>
        <time>2009-08-18T11:15:52Z</time>
      </trkpt>
      <trkpt lat="50.694345" lon="6.456050">
        <ele>199.130000</ele>
        <time>2009-08-18T11:16:01Z</time>
      </trkpt>
      <trkpt lat="50.694286" lon="6.455713">
        <ele>197.210000</ele>
        <time>2009-08-18T11:16:17Z</time>
      </trkpt>
      <trkpt lat="50.694242" lon="6.455542">
        <ele>195.770000</ele>
        <time>2009-08-18T11:16:25Z</time>
      </trkpt>
      <trkpt lat="50.694123" lon="6.455415">
        <ele>194.320000</ele>
        <time>2009-08-18T11:16:36Z</time>
      </trkpt>
      <trkpt lat="50.693904" lon="6.455354">
        <ele>192.880000</ele>
        <time>2009-08-18T11:16:52Z</time>
      </trkpt>
      <trkpt lat="50.693677" lon="6.455361">
        <ele>190.960000</ele>
        <time>2009-08-18T11:17:06Z</time>
      </trkpt>
      <trkpt lat="50.693533" lon="6.455374">
        <ele>190.000000</ele>
        <time>2009-08-18T11:17:18Z</time>
      </trkpt>
      <trkpt lat="50.693367" lon="6.455447">
        <ele>187.110000</ele>
        <time>2009-08-18T11:17:36Z</time>
      </trkpt>
      <trkpt lat="50.693063" lon="6.455407">
        <ele>183.750000</ele>
        <time>2009-08-18T11:17:56Z</time>
      </trkpt>
      <trkpt lat="50.692876" lon="6.455379">
        <ele>182.790000</ele>
        <time>2009-08-18T11:18:09Z</time>
      </trkpt>
      <trkpt lat="50.692701" lon="6.455288">
        <ele>181.830000</ele>
        <time>2009-08-18T11:18:22Z</time>
      </trkpt>
      <trkpt lat="50.692540" lon="6.455319">
        <ele>180.870000</ele>
        <time>2009-08-18T11:18:35Z</time>
      </trkpt>
      <trkpt lat="50.692340" lon="6.455374">
        <ele>180.380000</ele>
        <time>2009-08-18T11:18:50Z</time>
      </trkpt>
      <trkpt lat="50.692203" lon="6.455487">
        <ele>180.380000</ele>
        <time>2009-08-18T11:19:02Z</time>
      </trkpt>
      <trkpt lat="50.692077" lon="6.455593">
        <ele>179.420000</ele>
        <time>2009-08-18T11:19:15Z</time>
      </trkpt>
      <trkpt lat="50.692044" lon="6.455544">
        <ele>179.420000</ele>
        <time>2009-08-18T11:19:22Z</time>
      </trkpt>
      <trkpt lat="50.691869" lon="6.455212">
        <ele>178.460000</ele>
        <time>2009-08-18T11:19:40Z</time>
      </trkpt>
      <trkpt lat="50.691859" lon="6.455155">
        <ele>178.460000</ele>
        <time>2009-08-18T11:19:43Z</time>
      </trkpt>
      <trkpt lat="50.691847" lon="6.455093">
        <ele>178.460000</ele>
        <time>2009-08-18T11:19:46Z</time>
      </trkpt>
      <trkpt lat="50.691853" lon="6.454910">
        <ele>178.460000</ele>
        <time>2009-08-18T11:19:54Z</time>
      </trkpt>
      <trkpt lat="50.691851" lon="6.454868">
        <ele>178.940000</ele>
        <time>2009-08-18T11:19:57Z</time>
      </trkpt>
      <trkpt lat="50.691899" lon="6.454538">
        <ele>180.380000</ele>
        <time>2009-08-18T11:20:11Z</time>
      </trkpt>
      <trkpt lat="50.691844" lon="6.454260">
        <ele>180.870000</ele>
        <time>2009-08-18T11:20:25Z</time>
      </trkpt>
      <trkpt lat="50.691838" lon="6.454248">
        <ele>180.870000</ele>
        <time>2009-08-18T11:20:26Z</time>
      </trkpt>
      <trkpt lat="50.691794" lon="6.454283">
        <ele>180.380000</ele>
        <time>2009-08-18T11:20:31Z</time>
      </trkpt>
      <trkpt lat="50.691714" lon="6.454382">
        <ele>180.380000</ele>
        <time>2009-08-18T11:20:40Z</time>
      </trkpt>
      <trkpt lat="50.691551" lon="6.454493">
        <ele>179.420000</ele>
        <time>2009-08-18T11:20:56Z</time>
      </trkpt>
      <trkpt lat="50.691472" lon="6.454476">
        <ele>178.940000</ele>
        <time>2009-08-18T11:21:07Z</time>
      </trkpt>
      <trkpt lat="50.691377" lon="6.454523">
        <ele>179.420000</ele>
        <time>2009-08-18T11:21:10Z</time>
      </trkpt>
      <trkpt lat="50.691344" lon="6.454302">
        <ele>179.420000</ele>
        <time>2009-08-18T11:21:25Z</time>
      </trkpt>
      <trkpt lat="50.691294" lon="6.454258">
        <ele>180.380000</ele>
        <time>2009-08-18T11:21:39Z</time>
      </trkpt>
      <trkpt lat="50.691247" lon="6.454441">
        <ele>180.870000</ele>
        <time>2009-08-18T11:21:54Z</time>
      </trkpt>
      <trkpt lat="50.691284" lon="6.454380">
        <ele>180.380000</ele>
        <time>2009-08-18T11:22:15Z</time>
      </trkpt>
      <trkpt lat="50.691170" lon="6.454243">
        <ele>179.900000</ele>
        <time>2009-08-18T11:23:33Z</time>
      </trkpt>
      <trkpt lat="50.691171" lon="6.454248">
        <ele>181.350000</ele>
        <time>2009-08-18T11:24:00Z</time>
      </trkpt>
      <trkpt lat="50.691174" lon="6.454266">
        <ele>181.350000</ele>
        <time>2009-08-18T11:24:01Z</time>
      </trkpt>
      <trkpt lat="50.691045" lon="6.454691">
        <ele>181.350000</ele>
        <time>2009-08-18T11:24:23Z</time>
      </trkpt>
      <trkpt lat="50.690950" lon="6.454911">
        <ele>181.830000</ele>
        <time>2009-08-18T11:24:35Z</time>
      </trkpt>
      <trkpt lat="50.690865" lon="6.455132">
        <ele>181.350000</ele>
        <time>2009-08-18T11:24:46Z</time>
      </trkpt>
      <trkpt lat="50.690787" lon="6.455327">
        <ele>181.350000</ele>
        <time>2009-08-18T11:25:00Z</time>
      </trkpt>
      <trkpt lat="50.690651" lon="6.455633">
        <ele>181.350000</ele>
        <time>2009-08-18T11:25:20Z</time>
      </trkpt>
      <trkpt lat="50.690485" lon="6.456091">
        <ele>181.830000</ele>
        <time>2009-08-18T11:25:40Z</time>
      </trkpt>
      <trkpt lat="50.690409" lon="6.456527">
        <ele>181.830000</ele>
        <time>2009-08-18T11:26:02Z</time>
      </trkpt>
      <trkpt lat="50.690394" lon="6.456939">
        <ele>182.310000</ele>
        <time>2009-08-18T11:26:23Z</time>
      </trkpt>
      <trkpt lat="50.690483" lon="6.457377">
        <ele>182.310000</ele>
        <time>2009-08-18T11:26:43Z</time>
      </trkpt>
      <trkpt lat="50.690487" lon="6.457601">
        <ele>182.790000</ele>
        <time>2009-08-18T11:26:54Z</time>
      </trkpt>
      <trkpt lat="50.690511" lon="6.457828">
        <ele>182.790000</ele>
        <time>2009-08-18T11:27:04Z</time>
      </trkpt>
      <trkpt lat="50.690525" lon="6.457966">
        <ele>182.790000</ele>
        <time>2009-08-18T11:27:08Z</time>
      </trkpt>
      <trkpt lat="50.690495" lon="6.458357">
        <ele>182.790000</ele>
        <time>2009-08-18T11:27:23Z</time>
      </trkpt>
      <trkpt lat="50.690481" lon="6.458491">
        <ele>182.790000</ele>
        <time>2009-08-18T11:27:28Z</time>
      </trkpt>
      <trkpt lat="50.690498" lon="6.458647">
        <ele>182.790000</ele>
        <time>2009-08-18T11:27:35Z</time>
      </trkpt>
      <trkpt lat="50.690496" lon="6.458728">
        <ele>182.790000</ele>
        <time>2009-08-18T11:27:39Z</time>
      </trkpt>
      <trkpt lat="50.690533" lon="6.459014">
        <ele>182.790000</ele>
        <time>2009-08-18T11:27:52Z</time>
      </trkpt>
      <trkpt lat="50.690549" lon="6.459284">
        <ele>182.790000</ele>
        <time>2009-08-18T11:28:05Z</time>
      </trkpt>
      <trkpt lat="50.690553" lon="6.459301">
        <ele>182.790000</ele>
        <time>2009-08-18T11:28:06Z</time>
      </trkpt>
      <trkpt lat="50.690542" lon="6.459429">
        <ele>182.790000</ele>
        <time>2009-08-18T11:28:11Z</time>
      </trkpt>
      <trkpt lat="50.690545" lon="6.459783">
        <ele>182.790000</ele>
        <time>2009-08-18T11:28:26Z</time>
      </trkpt>
      <trkpt lat="50.690554" lon="6.459965">
        <ele>182.310000</ele>
        <time>2009-08-18T11:28:35Z</time>
      </trkpt>
      <trkpt lat="50.690601" lon="6.460164">
        <ele>182.310000</ele>
        <time>2009-08-18T11:28:50Z</time>
      </trkpt>
      <trkpt lat="50.690655" lon="6.460300">
        <ele>182.310000</ele>
        <time>2009-08-18T11:28:58Z</time>
      </trkpt>
      <trkpt lat="50.690713" lon="6.460515">
        <ele>182.310000</ele>
        <time>2009-08-18T11:29:08Z</time>
      </trkpt>
      <trkpt lat="50.690730" lon="6.460910">
        <ele>182.790000</ele>
        <time>2009-08-18T11:29:26Z</time>
      </trkpt>
      <trkpt lat="50.690744" lon="6.461204">
        <ele>181.830000</ele>
        <time>2009-08-18T11:29:39Z</time>
      </trkpt>
      <trkpt lat="50.690706" lon="6.461484">
        <ele>181.830000</ele>
        <time>2009-08-18T11:29:54Z</time>
      </trkpt>
      <trkpt lat="50.690620" lon="6.461899">
        <ele>181.830000</ele>
        <time>2009-08-18T11:30:13Z</time>
      </trkpt>
      <trkpt lat="50.690574" lon="6.462122">
        <ele>181.350000</ele>
        <time>2009-08-18T11:30:25Z</time>
      </trkpt>
      <trkpt lat="50.690580" lon="6.462162">
        <ele>181.350000</ele>
        <time>2009-08-18T11:30:27Z</time>
      </trkpt>
      <trkpt lat="50.690507" lon="6.462379">
        <ele>181.830000</ele>
        <time>2009-08-18T11:30:41Z</time>
      </trkpt>
      <trkpt lat="50.690456" lon="6.462438">
        <ele>182.310000</ele>
        <time>2009-08-18T11:30:48Z</time>
      </trkpt>
      <trkpt lat="50.690424" lon="6.462521">
        <ele>182.310000</ele>
        <time>2009-08-18T11:30:52Z</time>
      </trkpt>
      <trkpt lat="50.690404" lon="6.462639">
        <ele>182.310000</ele>
        <time>2009-08-18T11:30:58Z</time>
      </trkpt>
      <trkpt lat="50.690357" lon="6.462784">
        <ele>182.310000</ele>
        <time>2009-08-18T11:31:06Z</time>
      </trkpt>
      <trkpt lat="50.690374" lon="6.462831">
        <ele>182.310000</ele>
        <time>2009-08-18T11:31:08Z</time>
      </trkpt>
      <trkpt lat="50.690320" lon="6.463124">
        <ele>182.310000</ele>
        <time>2009-08-18T11:31:22Z</time>
      </trkpt>
      <trkpt lat="50.690277" lon="6.463399">
        <ele>182.310000</ele>
        <time>2009-08-18T11:31:36Z</time>
      </trkpt>
      <trkpt lat="50.690236" lon="6.463628">
        <ele>181.830000</ele>
        <time>2009-08-18T11:31:48Z</time>
      </trkpt>
      <trkpt lat="50.690204" lon="6.463818">
        <ele>181.830000</ele>
        <time>2009-08-18T11:31:56Z</time>
      </trkpt>
      <trkpt lat="50.690198" lon="6.463926">
        <ele>182.310000</ele>
        <time>2009-08-18T11:32:01Z</time>
      </trkpt>
      <trkpt lat="50.690190" lon="6.464102">
        <ele>181.830000</ele>
        <time>2009-08-18T11:32:13Z</time>
      </trkpt>
      <trkpt lat="50.690185" lon="6.464227">
        <ele>181.830000</ele>
        <time>2009-08-18T11:32:20Z</time>
      </trkpt>
      <trkpt lat="50.690113" lon="6.464563">
        <ele>181.830000</ele>
        <time>2009-08-18T11:32:35Z</time>
      </trkpt>
      <trkpt lat="50.689974" lon="6.464886">
        <ele>181.830000</ele>
        <time>2009-08-18T11:32:51Z</time>
      </trkpt>
      <trkpt lat="50.689939" lon="6.465084">
        <ele>180.870000</ele>
        <time>2009-08-18T11:33:03Z</time>
      </trkpt>
      <trkpt lat="50.689955" lon="6.465361">
        <ele>181.350000</ele>
        <time>2009-08-18T11:33:19Z</time>
      </trkpt>
      <trkpt lat="50.689903" lon="6.465817">
        <ele>181.830000</ele>
        <time>2009-08-18T11:33:41Z</time>
      </trkpt>
      <trkpt lat="50.689669" lon="6.465879">
        <ele>181.830000</ele>
        <time>2009-08-18T11:34:03Z</time>
      </trkpt>
    </trkseg>
  </trk>

</gpx>
